Observation data for Crowell on 05/16/2018      Previous  Date  Next       Current Mesonet Observations  Soil Data  Daily Summary Page  Observations in Plain Language
KCR1 160500Z 31009KT 19/16 A3008 RMK A01 T01900158  RH  082%=      5-min Rain = 0
KCR1 160501Z 31009KT 19/16 A3007 RMK A01 T01900156  RH  081%=      5-min Rain = 0.01
KCR1 160502Z 30008KT 19/16 A3007 RMK A01 T01910157  RH  081%=      5-min Rain = 0
KCR1 160503Z 28009KT 19/16 A3007 RMK A01 T01910157  RH  081%=      5-min Rain = 0.01
KCR1 160504Z 27009KT 19/16 A3007 RMK A01 T01910156  RH  080%=      5-min Rain = 0
KCR1 160505Z 27008KT 19/16 A3007 RMK A01 T01910157  RH  081%=      5-min Rain = 0.01
KCR1 160506Z 27009KT 19/16 A3007 RMK A01 T01900158  RH  081%=      5-min Rain = 0
KCR1 160507Z 28008KT 19/16 A3007 RMK A01 T01900156  RH  081%=      5-min Rain = 0
KCR1 160508Z 28008KT 19/16 A3007 RMK A01 T01910155  RH  080%=      5-min Rain = 0.01
KCR1 160509Z 27007KT 19/16 A3006 RMK A01 T01910156  RH  080%=      5-min Rain = 0
KCR1 160510Z 27005KT 19/16 A3006 RMK A01 T01910157  RH  080%=      5-min Rain = 0
KCR1 160511Z 27005KT 19/16 A3006 RMK A01 T01910156  RH  080%=      5-min Rain = 0.01
KCR1 160512Z 28005KT 19/16 A3006 RMK A01 T01910156  RH  080%=      5-min Rain = 0
KCR1 160513Z 28005KT 19/16 A3006 RMK A01 T01910156  RH  080%=      5-min Rain = 0
KCR1 160514Z 29006KT 19/16 A3005 RMK A01 T01910155  RH  079%=      5-min Rain = 0.01
KCR1 160515Z 30004KT 19/16 A3005 RMK A01 T01920156  RH  079%=      5-min Rain = 0
KCR1 160516Z 31006KT 19/16 A3005 RMK A01 T01930157  RH  080%=      5-min Rain = 0
KCR1 160517Z 32006KT 19/16 A3005 RMK A01 T01920158  RH  081%=      5-min Rain = 0.01
KCR1 160518Z 33005KT 19/16 A3005 RMK A01 T01910158  RH  081%=      5-min Rain = 0
KCR1 160519Z 33005KT 19/16 A3005 RMK A01 T01910160  RH  082%=      5-min Rain = 0
KCR1 160520Z 33005KT 19/16 A3005 RMK A01 T01900159  RH  082%=      5-min Rain = 0
KCR1 160521Z 35005KT 19/16 A3004 RMK A01 T01900159  RH  082%=      5-min Rain = 0.01
KCR1 160522Z 36005KT 19/16 A3004 RMK A01 T01900161  RH  083%=      5-min Rain = 0
KCR1 160523Z 36005KT 19/16 A3004 RMK A01 T01890162  RH  084%=      5-min Rain = 0
KCR1 160524Z 36004KT 19/16 A3004 RMK A01 T01890163  RH  085%=      5-min Rain = 0.01
KCR1 160525Z 35005KT 19/17 A3004 RMK A01 T01880165  RH  086%=      5-min Rain = 0
KCR1 160526Z 34004KT 19/17 A3004 RMK A01 T01880165  RH  087%=      5-min Rain = 0
KCR1 160527Z 34004KT 19/16 A3003 RMK A01 T01870164  RH  086%=      5-min Rain = 0.01
KCR1 160528Z 35003KT 19/16 A3003 RMK A01 T01870162  RH  085%=      5-min Rain = 0
KCR1 160529Z 34003KT 19/16 A3003 RMK A01 T01870163  RH  085%=      5-min Rain = 0
KCR1 160530Z 34003KT 19/17 A3003 RMK A01 T01880165  RH  087%=      5-min Rain = 0
KCR1 160531Z 34002KT 19/17 A3003 RMK A01 T01880166  RH  087%=      5-min Rain = 0.01
KCR1 160532Z 35001KT 19/17 A3003 RMK A01 T01870168  RH  088%=      5-min Rain = 0
KCR1 160533Z 00002KT 19/17 A3003 RMK A01 T01870168  RH  089%=      5-min Rain = 0.01
KCR1 160534Z 01002KT 19/17 A3003 RMK A01 T01870170  RH  090%=      5-min Rain = 0
KCR1 160535Z 06001KT 19/17 A3002 RMK A01 T01860168  RH  089%=      5-min Rain = 0.01
KCR1 160536Z 10002KT 19/17 A3001 RMK A01 T01860167  RH  088%=      5-min Rain = 0
KCR1 160537Z 12003KT 19/17 A30 RMK A01 T01860167  RH  089%=      5-min Rain = 0
KCR1 160538Z 14004KT 19/17 A30 RMK A01 T01850169  RH  090%=      5-min Rain = 0
KCR1 160539Z 14004KT 19/17 A2999 RMK A01 T01850169  RH  090%=      5-min Rain = 0.01
KCR1 160540Z 13005KT 18/17 A2999 RMK A01 T01840168  RH  090%=      5-min Rain = 0
KCR1 160541Z 13006KT 18/17 A2998 RMK A01 T01840168  RH  090%=      5-min Rain = 0
KCR1 160542Z 12007KT 18/17 A2998 RMK A01 T01840167  RH  090%=      5-min Rain = 0
KCR1 160543Z 11007KT 18/17 A2997 RMK A01 T01840167  RH  089%=      5-min Rain = 0
KCR1 160544Z 11007KT 18/17 A2997 RMK A01 T01840167  RH  090%=      5-min Rain = 0
KCR1 160545Z 10007KT 19/17 A2997 RMK A01 T01850167  RH  089%=      5-min Rain = 0
KCR1 160546Z 10007KT 19/17 A2996 RMK A01 T01860166  RH  088%=      5-min Rain = 0
KCR1 160547Z 10007KT 19/17 A2996 RMK A01 T01870165  RH  087%=      5-min Rain = 0
KCR1 160548Z 11007KT 19/16 A2995 RMK A01 T01870164  RH  087%=      5-min Rain = 0
KCR1 160549Z 12009KT 19/17 A2994 RMK A01 T01880165  RH  087%=      5-min Rain = 0
KCR1 160550Z 12011KT 19/16 A2993 RMK A01 T01880164  RH  086%=      5-min Rain = 0
KCR1 160551Z 12012KT 19/16 A2992 RMK A01 T01880163  RH  086%=      5-min Rain = 0
KCR1 160552Z 12012KT 19/16 A2991 RMK A01 T01890163  RH  085%=      5-min Rain = 0
KCR1 160553Z 14011KT 19/17 A299 RMK A01 T01890165  RH  086%=      5-min Rain = 0
KCR1 160554Z 14014KT 19/17 A299 RMK A01 T01890167  RH  087%=      5-min Rain = 0
KCR1 160555Z 14014KT 19/17 A2989 RMK A01 T01870167  RH  088%=      5-min Rain = 0
KCR1 160556Z 13013KT 19/17 A2989 RMK A01 T01860166  RH  088%=      5-min Rain = 0
KCR1 160557Z 13013KT 19/16 A2989 RMK A01 T01860163  RH  087%=      5-min Rain = 0
KCR1 160558Z 13011KT 19/16 A2988 RMK A01 T01860164  RH  087%=      5-min Rain = 0
KCR1 160559Z 13013KT 19/16 A2988 RMK A01 T01860164  RH  087%=      5-min Rain = 0
KCR1 160600Z 13014KT 19/16 A2988 RMK A01 T01860164  RH  087%=      5-min Rain = 0
KCR1 160601Z 13014KT 19/16 A2987 RMK A01 T01850163  RH  087%=      5-min Rain = 0
KCR1 160602Z 13014KT 19/16 A2987 RMK A01 T01850163  RH  087%=      5-min Rain = 0
KCR1 160603Z 13013KT 19/16 A2987 RMK A01 T01850163  RH  087%=      5-min Rain = 0
KCR1 160604Z 13013KT 19/16 A2986 RMK A01 T01850162  RH  087%=      5-min Rain = 0
KCR1 160605Z 13014KT 19/16 A2986 RMK A01 T01850161  RH  086%=      5-min Rain = 0
KCR1 160606Z 14013KT 19/16 A2986 RMK A01 T01850162  RH  086%=      5-min Rain = 0.01
KCR1 160607Z 13013G18KT 18/16 A2986 RMK A01 T01840162  RH  087%=      5-min Rain = 0
KCR1 160608Z 13013KT 18/16 A2986 RMK A01 T01830161  RH  087%=      5-min Rain = 0
KCR1 160609Z 14014KT 18/16 A2986 RMK A01 T01830160  RH  086%=      5-min Rain = 0
KCR1 160610Z 14016KT 18/16 A2986 RMK A01 T01830160  RH  086%=      5-min Rain = 0
KCR1 160611Z 14013KT 18/16 A2986 RMK A01 T01840162  RH  087%=      5-min Rain = 0
KCR1 160612Z 14014KT 18/16 A2986 RMK A01 T01840162  RH  087%=      5-min Rain = 0
KCR1 160613Z 14013KT 18/16 A2986 RMK A01 T01840162  RH  087%=      5-min Rain = 0
KCR1 160614Z 14013KT 18/16 A2986 RMK A01 T01840161  RH  086%=      5-min Rain = 0
KCR1 160615Z 13013KT 19/16 A2986 RMK A01 T01850160  RH  085%=      5-min Rain = 0
KCR1 160616Z 13013KT 19/16 A2986 RMK A01 T01860158  RH  084%=      5-min Rain = 0
KCR1 160617Z 14013KT 19/16 A2986 RMK A01 T01870157  RH  083%=      5-min Rain = 0
KCR1 160618Z 14013KT 19/16 A2986 RMK A01 T01880155  RH  082%=      5-min Rain = 0
KCR1 160619Z 14012KT 19/16 A2986 RMK A01 T01890155  RH  081%=      5-min Rain = 0
KCR1 160620Z 14013KT 19/15 A2986 RMK A01 T01900153  RH  079%=      5-min Rain = 0
KCR1 160621Z 15012KT 19/15 A2986 RMK A01 T01910153  RH  079%=      5-min Rain = 0
KCR1 160622Z 14011KT 19/15 A2986 RMK A01 T01910153  RH  078%=      5-min Rain = 0
KCR1 160623Z 14011KT 19/15 A2986 RMK A01 T01920154  RH  079%=      5-min Rain = 0
KCR1 160624Z 14011KT 19/15 A2986 RMK A01 T01910153  RH  078%=      5-min Rain = 0
KCR1 160625Z 14011KT 19/15 A2986 RMK A01 T01920153  RH  078%=      5-min Rain = 0
KCR1 160626Z 14011KT 19/15 A2986 RMK A01 T01920151  RH  077%=      5-min Rain = 0
KCR1 160627Z 14011KT 19/15 A2986 RMK A01 T01930151  RH  077%=      5-min Rain = 0
KCR1 160628Z 14011KT 19/15 A2986 RMK A01 T01940151  RH  076%=      5-min Rain = 0
KCR1 160629Z 14011KT 19/15 A2986 RMK A01 T01940150  RH  075%=      5-min Rain = 0
KCR1 160630Z 14011KT 20/15 A2987 RMK A01 T01950149  RH  074%=      5-min Rain = 0
KCR1 160631Z 14010KT 20/15 A2987 RMK A01 T01960149  RH  074%=      5-min Rain = 0
KCR1 160632Z 14009KT 20/15 A2987 RMK A01 T01960149  RH  074%=      5-min Rain = 0
KCR1 160633Z 15009KT 20/15 A2987 RMK A01 T01960149  RH  074%=      5-min Rain = 0
KCR1 160634Z 15009KT 20/15 A2988 RMK A01 T01970148  RH  073%=      5-min Rain = 0
KCR1 160635Z 16009KT 20/15 A2988 RMK A01 T01980148  RH  073%=      5-min Rain = 0
KCR1 160636Z 17008KT 20/15 A2988 RMK A01 T01990150  RH  073%=      5-min Rain = 0
KCR1 160637Z 19008KT 20/15 A2988 RMK A01 T01980152  RH  074%=      5-min Rain = 0
KCR1 160638Z 21007KT 20/15 A2989 RMK A01 T01980154  RH  076%=      5-min Rain = 0
KCR1 160639Z 21008KT 20/15 A2989 RMK A01 T01970150  RH  074%=      5-min Rain = 0
KCR1 160640Z 21007KT 20/15 A2989 RMK A01 T01980151  RH  074%=      5-min Rain = 0
KCR1 160641Z 21007KT 20/15 A2989 RMK A01 T01980152  RH  075%=      5-min Rain = 0
KCR1 160642Z 20006KT 20/15 A2989 RMK A01 T01980153  RH  075%=      5-min Rain = 0
KCR1 160643Z 20007KT 20/15 A2989 RMK A01 T01970152  RH  075%=      5-min Rain = 0
KCR1 160644Z 20008KT 20/15 A2989 RMK A01 T01970152  RH  075%=      5-min Rain = 0
KCR1 160645Z 20008KT 20/15 A2989 RMK A01 T01970153  RH  076%=      5-min Rain = 0
KCR1 160646Z 21009KT 20/15 A2989 RMK A01 T01960153  RH  076%=      5-min Rain = 0
KCR1 160647Z 22009KT 20/16 A299 RMK A01 T01960156  RH  078%=      5-min Rain = 0
KCR1 160648Z 23009KT 19/16 A299 RMK A01 T01940156  RH  079%=      5-min Rain = 0
KCR1 160649Z 23009KT 19/16 A299 RMK A01 T01920156  RH  080%=      5-min Rain = 0
KCR1 160650Z 23009KT 19/16 A299 RMK A01 T01910158  RH  081%=      5-min Rain = 0
KCR1 160651Z 23009KT 19/16 A299 RMK A01 T01900157  RH  081%=      5-min Rain = 0
KCR1 160652Z 22009KT 19/16 A299 RMK A01 T01890158  RH  082%=      5-min Rain = 0
KCR1 160653Z 22009KT 19/16 A299 RMK A01 T01880157  RH  082%=      5-min Rain = 0
KCR1 160654Z 22009KT 19/16 A299 RMK A01 T01880157  RH  082%=      5-min Rain = 0
KCR1 160655Z 23008KT 19/16 A299 RMK A01 T01880157  RH  082%=      5-min Rain = 0
KCR1 160656Z 23009KT 19/16 A2991 RMK A01 T01890158  RH  082%=      5-min Rain = 0
KCR1 160657Z 23009KT 19/16 A2991 RMK A01 T01880158  RH  083%=      5-min Rain = 0
KCR1 160658Z 23009KT 19/16 A2991 RMK A01 T01870158  RH  083%=      5-min Rain = 0
KCR1 160659Z 23009KT 19/16 A2991 RMK A01 T01870157  RH  083%=      5-min Rain = 0
KCR1 160700Z 23009KT 19/16 A2991 RMK A01 T01870157  RH  083%=      5-min Rain = 0
KCR1 160701Z 23010KT 19/16 A2992 RMK A01 T01870157  RH  083%=      5-min Rain = 0
KCR1 160702Z 24009KT 19/16 A2992 RMK A01 T01860158  RH  083%=      5-min Rain = 0
KCR1 160703Z 24009KT 19/16 A2992 RMK A01 T01870158  RH  083%=      5-min Rain = 0
KCR1 160704Z 24008KT 19/16 A2992 RMK A01 T01870157  RH  083%=      5-min Rain = 0
KCR1 160705Z 24009KT 19/16 A2992 RMK A01 T01870155  RH  082%=      5-min Rain = 0
KCR1 160706Z 24007KT 19/16 A2992 RMK A01 T01880155  RH  081%=      5-min Rain = 0
KCR1 160707Z 25008KT 19/16 A2993 RMK A01 T01880157  RH  082%=      5-min Rain = 0
KCR1 160708Z 25008KT 19/16 A2993 RMK A01 T01880157  RH  082%=      5-min Rain = 0
KCR1 160709Z 25009KT 19/16 A2993 RMK A01 T01870156  RH  082%=      5-min Rain = 0
KCR1 160710Z 25008KT 19/16 A2993 RMK A01 T01880156  RH  082%=      5-min Rain = 0
KCR1 160711Z 26006KT 19/16 A2994 RMK A01 T01880156  RH  082%=      5-min Rain = 0
KCR1 160712Z 26006KT 19/16 A2994 RMK A01 T01880157  RH  082%=      5-min Rain = 0
KCR1 160713Z 30006KT 19/16 A2995 RMK A01 T01890156  RH  081%=      5-min Rain = 0
KCR1 160714Z 35010G16KT 19/16 A2996 RMK A01 T01890156  RH  081%=      5-min Rain = 0
KCR1 160715Z 01017KT 19/16 A2997 RMK A01 T01900159  RH  082%=      5-min Rain = 0
KCR1 160716Z 01013KT 19/16 A2997 RMK A01 T01900160  RH  083%=      5-min Rain = 0
KCR1 160717Z 01013KT 19/16 A2997 RMK A01 T01910160  RH  082%=      5-min Rain = 0
KCR1 160718Z 00014KT 19/16 A2997 RMK A01 T01920157  RH  080%=      5-min Rain = 0
KCR1 160719Z 35012G18KT 20/15 A2997 RMK A01 T01950149  RH  075%=      5-min Rain = 0
KCR1 160720Z 33007KT 20/14 A2996 RMK A01 T02000143  RH  070%=      5-min Rain = 0
KCR1 160721Z 34005KT 20/15 A2996 RMK A01 T02030148  RH  071%=      5-min Rain = 0
KCR1 160722Z 00007KT 20/15 A2996 RMK A01 T02020151  RH  072%=      5-min Rain = 0
KCR1 160723Z 02012KT 20/15 A2997 RMK A01 T02020151  RH  073%=      5-min Rain = 0
KCR1 160724Z 02015KT 20/15 A2997 RMK A01 T02020150  RH  072%=      5-min Rain = 0
KCR1 160725Z 02012KT 20/15 A2997 RMK A01 T02020151  RH  073%=      5-min Rain = 0
KCR1 160726Z 01010KT 20/15 A2997 RMK A01 T02010152  RH  073%=      5-min Rain = 0
KCR1 160727Z 01009KT 20/15 A2997 RMK A01 T02000151  RH  073%=      5-min Rain = 0
KCR1 160728Z 35007KT 20/15 A2997 RMK A01 T02000152  RH  074%=      5-min Rain = 0
KCR1 160729Z 33006KT 20/15 A2996 RMK A01 T02000153  RH  074%=      5-min Rain = 0
KCR1 160730Z 31005KT 20/15 A2996 RMK A01 T01990154  RH  075%=      5-min Rain = 0
KCR1 160731Z 31006KT 20/15 A2996 RMK A01 T01980153  RH  075%=      5-min Rain = 0
KCR1 160732Z 33006KT 20/15 A2996 RMK A01 T01970154  RH  076%=      5-min Rain = 0
KCR1 160733Z 34006KT 20/16 A2996 RMK A01 T01960155  RH  077%=      5-min Rain = 0
KCR1 160734Z 34006KT 20/16 A2997 RMK A01 T01960156  RH  078%=      5-min Rain = 0
KCR1 160735Z 34007KT 20/15 A2997 RMK A01 T01960154  RH  077%=      5-min Rain = 0
KCR1 160736Z 33007KT 20/15 A2997 RMK A01 T01960153  RH  076%=      5-min Rain = 0
KCR1 160737Z 33007KT 20/15 A2997 RMK A01 T01970154  RH  076%=      5-min Rain = 0
KCR1 160738Z 32007KT 20/16 A2998 RMK A01 T01970156  RH  077%=      5-min Rain = 0
KCR1 160739Z 33007KT 20/16 A2998 RMK A01 T01960156  RH  078%=      5-min Rain = 0
KCR1 160740Z 32008KT 20/15 A2998 RMK A01 T01960154  RH  076%=      5-min Rain = 0
KCR1 160741Z 32009KT 20/15 A2998 RMK A01 T01970152  RH  075%=      5-min Rain = 0
KCR1 160742Z 32010KT 20/15 A2998 RMK A01 T01970153  RH  075%=      5-min Rain = 0
KCR1 160743Z 33010KT 20/15 A2999 RMK A01 T01980151  RH  074%=      5-min Rain = 0
KCR1 160744Z 33009KT 20/15 A2999 RMK A01 T01990151  RH  074%=      5-min Rain = 0
KCR1 160745Z 33008KT 20/15 A2999 RMK A01 T01990154  RH  075%=      5-min Rain = 0
KCR1 160746Z 34010KT 20/15 A2999 RMK A01 T01990153  RH  075%=      5-min Rain = 0
KCR1 160747Z 34009KT 20/15 A2998 RMK A01 T01990152  RH  075%=      5-min Rain = 0
KCR1 160748Z 34008KT 20/15 A2998 RMK A01 T01980154  RH  076%=      5-min Rain = 0
KCR1 160749Z 34008KT 20/16 A2998 RMK A01 T01970156  RH  077%=      5-min Rain = 0
KCR1 160750Z 34006KT 20/15 A2997 RMK A01 T01960154  RH  076%=      5-min Rain = 0
KCR1 160751Z 35004KT 20/15 A2997 RMK A01 T01960153  RH  076%=      5-min Rain = 0
KCR1 160752Z 36005KT 20/15 A2997 RMK A01 T01960153  RH  076%=      5-min Rain = 0
KCR1 160753Z 35008KT 20/15 A2996 RMK A01 T01960153  RH  076%=      5-min Rain = 0
KCR1 160754Z 34007KT 20/16 A2996 RMK A01 T01960155  RH  077%=      5-min Rain = 0
KCR1 160755Z 34008KT 20/16 A2997 RMK A01 T01960156  RH  078%=      5-min Rain = 0
KCR1 160756Z 35008KT 20/16 A2996 RMK A01 T01950155  RH  078%=      5-min Rain = 0
KCR1 160757Z 01007KT 20/15 A2995 RMK A01 T01950154  RH  077%=      5-min Rain = 0
KCR1 160758Z 02007KT 20/15 A2994 RMK A01 T01950149  RH  075%=      5-min Rain = 0
KCR1 160759Z 04006KT 20/15 A2992 RMK A01 T01960149  RH  074%=      5-min Rain = 0
KCR1 160800Z 06005KT 20/15 A2991 RMK A01 T01970146  RH  072%=      5-min Rain = 0
KCR1 160801Z 09007KT 20/15 A2989 RMK A01 T01980146  RH  072%=      5-min Rain = 0
KCR1 160802Z 10009KT 20/15 A2987 RMK A01 T01990151  RH  074%=      5-min Rain = 0
KCR1 160803Z 11012KT 20/15 A2985 RMK A01 T01980151  RH  074%=      5-min Rain = 0
KCR1 160804Z 12011KT 20/15 A2986 RMK A01 T01970151  RH  075%=      5-min Rain = 0
KCR1 160805Z 12006KT 20/15 A2988 RMK A01 T01960152  RH  076%=      5-min Rain = 0
KCR1 160806Z 34005G10KT 20/15 A2992 RMK A01 T01950152  RH  076%=      5-min Rain = 0
KCR1 160807Z 32013KT 20/16 A2994 RMK A01 T01950155  RH  078%=      5-min Rain = 0
KCR1 160808Z 32014KT 20/15 A2995 RMK A01 T01950154  RH  077%=      5-min Rain = 0
KCR1 160809Z 33013KT 20/15 A2996 RMK A01 T01950153  RH  077%=      5-min Rain = 0
KCR1 160810Z 34012KT 20/15 A2996 RMK A01 T01950153  RH  077%=      5-min Rain = 0
KCR1 160811Z 35011KT 20/15 A2995 RMK A01 T01950153  RH  077%=      5-min Rain = 0
KCR1 160812Z 36008KT 20/15 A2995 RMK A01 T01950152  RH  076%=      5-min Rain = 0
KCR1 160813Z 36007KT 20/15 A2994 RMK A01 T01950152  RH  076%=      5-min Rain = 0
KCR1 160814Z 34008KT 20/15 A2994 RMK A01 T01950150  RH  075%=      5-min Rain = 0
KCR1 160815Z 34012KT 20/15 A2994 RMK A01 T01950151  RH  076%=      5-min Rain = 0
KCR1 160816Z 33011KT 20/15 A2995 RMK A01 T01950152  RH  076%=      5-min Rain = 0
KCR1 160817Z 34009KT 19/15 A2995 RMK A01 T01940152  RH  077%=      5-min Rain = 0
KCR1 160818Z 34011KT 19/15 A2995 RMK A01 T01940153  RH  077%=      5-min Rain = 0
KCR1 160819Z 34012KT 19/15 A2995 RMK A01 T01930152  RH  077%=      5-min Rain = 0
KCR1 160820Z 34012KT 19/15 A2995 RMK A01 T01930151  RH  077%=      5-min Rain = 0
KCR1 160821Z 33014KT 19/15 A2995 RMK A01 T01940150  RH  075%=      5-min Rain = 0
KCR1 160822Z 33011KT 20/15 A2995 RMK A01 T01950150  RH  075%=      5-min Rain = 0
KCR1 160823Z 33009KT 20/15 A2995 RMK A01 T01950152  RH  076%=      5-min Rain = 0
KCR1 160824Z 33010KT 19/15 A2995 RMK A01 T01940153  RH  077%=      5-min Rain = 0
KCR1 160825Z 33011KT 19/15 A2995 RMK A01 T01930153  RH  078%=      5-min Rain = 0
KCR1 160826Z 33013KT 19/15 A2995 RMK A01 T01920151  RH  077%=      5-min Rain = 0
KCR1 160827Z 32011KT 19/15 A2995 RMK A01 T01930151  RH  077%=      5-min Rain = 0
KCR1 160828Z 32009KT 19/15 A2995 RMK A01 T01930151  RH  077%=      5-min Rain = 0
KCR1 160829Z 32009KT 19/15 A2995 RMK A01 T01920152  RH  077%=      5-min Rain = 0
KCR1 160830Z 31010KT 19/15 A2995 RMK A01 T01920152  RH  078%=      5-min Rain = 0
KCR1 160831Z 30011KT 19/15 A2995 RMK A01 T01910151  RH  078%=      5-min Rain = 0
KCR1 160832Z 30011KT 19/15 A2995 RMK A01 T01910150  RH  077%=      5-min Rain = 0
KCR1 160833Z 31011KT 19/15 A2996 RMK A01 T01910151  RH  077%=      5-min Rain = 0
KCR1 160834Z 31013KT 19/15 A2996 RMK A01 T01910150  RH  077%=      5-min Rain = 0
KCR1 160835Z 31009KT 19/15 A2996 RMK A01 T01920150  RH  076%=      5-min Rain = 0
KCR1 160836Z 32009KT 19/15 A2996 RMK A01 T01920151  RH  077%=      5-min Rain = 0
KCR1 160837Z 32008KT 19/15 A2996 RMK A01 T01920150  RH  077%=      5-min Rain = 0
KCR1 160838Z 32008KT 19/15 A2996 RMK A01 T01920151  RH  077%=      5-min Rain = 0
KCR1 160839Z 32009KT 19/15 A2996 RMK A01 T01910150  RH  077%=      5-min Rain = 0
KCR1 160840Z 31011KT 19/15 A2996 RMK A01 T01910150  RH  077%=      5-min Rain = 0
KCR1 160841Z 30009KT 19/15 A2996 RMK A01 T01910149  RH  077%=      5-min Rain = 0
KCR1 160842Z 31010KT 19/15 A2996 RMK A01 T01910150  RH  077%=      5-min Rain = 0
KCR1 160843Z 31010KT 19/15 A2996 RMK A01 T01910150  RH  077%=      5-min Rain = 0
KCR1 160844Z 30010KT 19/15 A2996 RMK A01 T01900150  RH  077%=      5-min Rain = 0
KCR1 160845Z 31009KT 19/15 A2996 RMK A01 T01900150  RH  078%=      5-min Rain = 0
KCR1 160846Z 31010KT 19/15 A2996 RMK A01 T01900151  RH  078%=      5-min Rain = 0
KCR1 160847Z 31009KT 19/15 A2996 RMK A01 T01900151  RH  078%=      5-min Rain = 0
KCR1 160848Z 31008KT 19/15 A2996 RMK A01 T01900151  RH  078%=      5-min Rain = 0
KCR1 160849Z 32008KT 19/15 A2996 RMK A01 T01890151  RH  078%=      5-min Rain = 0
KCR1 160850Z 32009KT 19/15 A2996 RMK A01 T01890149  RH  077%=      5-min Rain = 0
KCR1 160851Z 32008KT 19/15 A2996 RMK A01 T01900150  RH  077%=      5-min Rain = 0
KCR1 160852Z 32008KT 19/15 A2995 RMK A01 T01900150  RH  078%=      5-min Rain = 0
KCR1 160853Z 32005KT 19/15 A2995 RMK A01 T01900150  RH  077%=      5-min Rain = 0
KCR1 160854Z 31006KT 19/15 A2995 RMK A01 T01900150  RH  078%=      5-min Rain = 0
KCR1 160855Z 31005KT 19/15 A2994 RMK A01 T01900150  RH  078%=      5-min Rain = 0
KCR1 160856Z 30006KT 19/15 A2994 RMK A01 T01900151  RH  078%=      5-min Rain = 0
KCR1 160857Z 30007KT 19/15 A2994 RMK A01 T01890151  RH  078%=      5-min Rain = 0
KCR1 160858Z 31006KT 19/15 A2994 RMK A01 T01880151  RH  079%=      5-min Rain = 0
KCR1 160859Z 32004KT 19/15 A2994 RMK A01 T01890151  RH  079%=      5-min Rain = 0
KCR1 160900Z 33004KT 19/15 A2993 RMK A01 T01880151  RH  079%=      5-min Rain = 0
KCR1 160901Z 36003KT 19/15 A2993 RMK A01 T01880152  RH  079%=      5-min Rain = 0
KCR1 160902Z 01004KT 19/15 A2993 RMK A01 T01880152  RH  079%=      5-min Rain = 0
KCR1 160903Z 02005KT 19/15 A2992 RMK A01 T01880152  RH  080%=      5-min Rain = 0
KCR1 160904Z 02005KT 19/15 A2992 RMK A01 T01880153  RH  080%=      5-min Rain = 0
KCR1 160905Z 03006KT 19/15 A2992 RMK A01 T01870154  RH  081%=      5-min Rain = 0
KCR1 160906Z 03007KT 19/16 A2992 RMK A01 T01860155  RH  082%=      5-min Rain = 0
KCR1 160907Z 02007KT 19/16 A2992 RMK A01 T01850156  RH  083%=      5-min Rain = 0
KCR1 160908Z 01008KT 18/16 A2993 RMK A01 T01840157  RH  084%=      5-min Rain = 0
KCR1 160909Z 36008KT 18/16 A2993 RMK A01 T01840157  RH  084%=      5-min Rain = 0
KCR1 160910Z 34009KT 18/16 A2994 RMK A01 T01830157  RH  084%=      5-min Rain = 0
KCR1 160911Z 32010KT 18/16 A2995 RMK A01 T01840156  RH  084%=      5-min Rain = 0
KCR1 160912Z 31010KT 18/16 A2996 RMK A01 T01840155  RH  083%=      5-min Rain = 0
KCR1 160913Z 30011KT 18/15 A2996 RMK A01 T01840154  RH  082%=      5-min Rain = 0
KCR1 160914Z 29012KT 19/15 A2997 RMK A01 T01850153  RH  082%=      5-min Rain = 0
KCR1 160915Z 29011KT 19/15 A2997 RMK A01 T01860153  RH  081%=      5-min Rain = 0
KCR1 160916Z 29011KT 19/15 A2997 RMK A01 T01860153  RH  081%=      5-min Rain = 0
KCR1 160917Z 29009KT 19/15 A2997 RMK A01 T01870154  RH  081%=      5-min Rain = 0
KCR1 160918Z 28008KT 19/15 A2997 RMK A01 T01860154  RH  081%=      5-min Rain = 0
KCR1 160919Z 29006KT 19/15 A2997 RMK A01 T01860154  RH  082%=      5-min Rain = 0
KCR1 160920Z 30008KT 19/15 A2997 RMK A01 T01850154  RH  082%=      5-min Rain = 0
KCR1 160921Z 31010KT 19/15 A2997 RMK A01 T01850154  RH  082%=      5-min Rain = 0
KCR1 160922Z 30010KT 19/15 A2997 RMK A01 T01850154  RH  082%=      5-min Rain = 0
KCR1 160923Z 30011KT 19/15 A2997 RMK A01 T01850154  RH  082%=      5-min Rain = 0
KCR1 160924Z 30011KT 19/15 A2997 RMK A01 T01850154  RH  082%=      5-min Rain = 0
KCR1 160925Z 30010KT 19/15 A2997 RMK A01 T01850153  RH  082%=      5-min Rain = 0
KCR1 160926Z 31009KT 19/15 A2997 RMK A01 T01850153  RH  082%=      5-min Rain = 0
KCR1 160927Z 31009KT 19/15 A2997 RMK A01 T01850153  RH  082%=      5-min Rain = 0
KCR1 160928Z 31009KT 19/15 A2997 RMK A01 T01850154  RH  082%=      5-min Rain = 0
KCR1 160929Z 31009KT 19/15 A2997 RMK A01 T01850154  RH  082%=      5-min Rain = 0
KCR1 160930Z 32010KT 19/15 A2996 RMK A01 T01850153  RH  082%=      5-min Rain = 0
KCR1 160931Z 32009KT 19/15 A2996 RMK A01 T01860153  RH  081%=      5-min Rain = 0
KCR1 160932Z 32008KT 19/15 A2996 RMK A01 T01870153  RH  080%=      5-min Rain = 0
KCR1 160933Z 32009KT 19/15 A2996 RMK A01 T01870153  RH  080%=      5-min Rain = 0
KCR1 160934Z 32010KT 19/15 A2996 RMK A01 T01880152  RH  080%=      5-min Rain = 0
KCR1 160935Z 32009KT 19/15 A2996 RMK A01 T01890151  RH  079%=      5-min Rain = 0
KCR1 160936Z 32008KT 19/15 A2996 RMK A01 T01890152  RH  079%=      5-min Rain = 0
KCR1 160937Z 32007KT 19/15 A2996 RMK A01 T01890153  RH  079%=      5-min Rain = 0
KCR1 160938Z 32007KT 19/15 A2996 RMK A01 T01890153  RH  080%=      5-min Rain = 0
KCR1 160939Z 32007KT 19/15 A2996 RMK A01 T01880153  RH  080%=      5-min Rain = 0
KCR1 160940Z 33007KT 19/15 A2996 RMK A01 T01890153  RH  080%=      5-min Rain = 0
KCR1 160941Z 32007KT 19/15 A2996 RMK A01 T01880153  RH  080%=      5-min Rain = 0
KCR1 160942Z 32008KT 19/15 A2996 RMK A01 T01880153  RH  080%=      5-min Rain = 0
KCR1 160943Z 31008KT 19/15 A2996 RMK A01 T01880153  RH  080%=      5-min Rain = 0
KCR1 160944Z 31009KT 19/15 A2996 RMK A01 T01880153  RH  080%=      5-min Rain = 0
KCR1 160945Z 32008KT 19/15 A2996 RMK A01 T01880153  RH  080%=      5-min Rain = 0
KCR1 160946Z 32008KT 19/15 A2996 RMK A01 T01870153  RH  080%=      5-min Rain = 0
KCR1 160947Z 32008KT 19/15 A2997 RMK A01 T01870153  RH  081%=      5-min Rain = 0
KCR1 160948Z 32009KT 19/15 A2997 RMK A01 T01870153  RH  081%=      5-min Rain = 0
KCR1 160949Z 32010KT 19/15 A2997 RMK A01 T01870153  RH  080%=      5-min Rain = 0
KCR1 160950Z 33010KT 19/15 A2997 RMK A01 T01870153  RH  081%=      5-min Rain = 0
KCR1 160951Z 33009KT 19/15 A2997 RMK A01 T01870154  RH  081%=      5-min Rain = 0
KCR1 160952Z 33009KT 19/15 A2997 RMK A01 T01870154  RH  081%=      5-min Rain = 0
KCR1 160953Z 34008KT 19/16 A2997 RMK A01 T01870155  RH  082%=      5-min Rain = 0
KCR1 160954Z 34009KT 19/16 A2997 RMK A01 T01860155  RH  082%=      5-min Rain = 0
KCR1 160955Z 34010KT 19/16 A2997 RMK A01 T01850155  RH  082%=      5-min Rain = 0
KCR1 160956Z 34009KT 19/16 A2997 RMK A01 T01850155  RH  082%=      5-min Rain = 0
KCR1 160957Z 34008KT 19/16 A2997 RMK A01 T01850155  RH  083%=      5-min Rain = 0
KCR1 160958Z 33007KT 19/16 A2996 RMK A01 T01850156  RH  083%=      5-min Rain = 0
KCR1 160959Z 33009KT 18/16 A2996 RMK A01 T01840156  RH  083%=      5-min Rain = 0
KCR1 161000Z 33008KT 18/16 A2996 RMK A01 T01840155  RH  083%=      5-min Rain = 0
KCR1 161001Z 32008KT 18/16 A2997 RMK A01 T01840155  RH  083%=      5-min Rain = 0
KCR1 161002Z 32009KT 18/16 A2997 RMK A01 T01840155  RH  083%=      5-min Rain = 0
KCR1 161003Z 32009KT 18/16 A2997 RMK A01 T01840155  RH  083%=      5-min Rain = 0
KCR1 161004Z 32008KT 18/16 A2997 RMK A01 T01840155  RH  083%=      5-min Rain = 0
KCR1 161005Z 32008KT 18/15 A2997 RMK A01 T01840154  RH  083%=      5-min Rain = 0
KCR1 161006Z 33008KT 19/16 A2997 RMK A01 T01850155  RH  083%=      5-min Rain = 0
KCR1 161007Z 34008KT 18/16 A2997 RMK A01 T01840155  RH  083%=      5-min Rain = 0
KCR1 161008Z 34008KT 19/16 A2997 RMK A01 T01850156  RH  083%=      5-min Rain = 0
KCR1 161009Z 34008KT 18/16 A2997 RMK A01 T01840155  RH  083%=      5-min Rain = 0
KCR1 161010Z 34008KT 18/16 A2997 RMK A01 T01840155  RH  083%=      5-min Rain = 0
KCR1 161011Z 34009KT 18/16 A2997 RMK A01 T01840156  RH  084%=      5-min Rain = 0
KCR1 161012Z 34009KT 18/16 A2997 RMK A01 T01830156  RH  084%=      5-min Rain = 0
KCR1 161013Z 34008KT 18/16 A2997 RMK A01 T01820156  RH  085%=      5-min Rain = 0
KCR1 161014Z 34007KT 18/16 A2997 RMK A01 T01810156  RH  085%=      5-min Rain = 0
KCR1 161015Z 34007KT 18/16 A2997 RMK A01 T01800156  RH  086%=      5-min Rain = 0
KCR1 161016Z 34008KT 18/16 A2997 RMK A01 T01800157  RH  086%=      5-min Rain = 0
KCR1 161017Z 34007KT 18/16 A2997 RMK A01 T01790156  RH  087%=      5-min Rain = 0
KCR1 161018Z 34007KT 18/16 A2997 RMK A01 T01790156  RH  087%=      5-min Rain = 0
KCR1 161019Z 33007KT 18/16 A2997 RMK A01 T01790157  RH  087%=      5-min Rain = 0
KCR1 161020Z 33007KT 18/16 A2997 RMK A01 T01790157  RH  087%=      5-min Rain = 0
KCR1 161021Z 33007KT 18/16 A2997 RMK A01 T01790157  RH  087%=      5-min Rain = 0
KCR1 161022Z 33006KT 18/16 A2997 RMK A01 T01790156  RH  087%=      5-min Rain = 0
KCR1 161023Z 33007KT 18/16 A2997 RMK A01 T01790156  RH  087%=      5-min Rain = 0
KCR1 161024Z 33006KT 18/16 A2997 RMK A01 T01790155  RH  086%=      5-min Rain = 0
KCR1 161025Z 34006KT 18/16 A2997 RMK A01 T01790156  RH  086%=      5-min Rain = 0
KCR1 161026Z 35006KT 18/16 A2997 RMK A01 T01800156  RH  086%=      5-min Rain = 0
KCR1 161027Z 35006KT 18/16 A2997 RMK A01 T01800156  RH  086%=      5-min Rain = 0
KCR1 161028Z 34006KT 18/16 A2997 RMK A01 T01800157  RH  086%=      5-min Rain = 0
KCR1 161029Z 33006KT 18/16 A2997 RMK A01 T01800157  RH  087%=      5-min Rain = 0
KCR1 161030Z 33006KT 18/16 A2998 RMK A01 T01790157  RH  087%=      5-min Rain = 0
KCR1 161031Z 32006KT 18/16 A2998 RMK A01 T01790157  RH  087%=      5-min Rain = 0
KCR1 161032Z 32007KT 18/16 A2998 RMK A01 T01790157  RH  087%=      5-min Rain = 0
KCR1 161033Z 31007KT 18/16 A2998 RMK A01 T01790156  RH  086%=      5-min Rain = 0
KCR1 161034Z 32007KT 18/16 A2998 RMK A01 T01790156  RH  086%=      5-min Rain = 0
KCR1 161035Z 31008KT 18/16 A2998 RMK A01 T01790155  RH  086%=      5-min Rain = 0
KCR1 161036Z 31006KT 18/16 A2998 RMK A01 T01800156  RH  086%=      5-min Rain = 0
KCR1 161037Z 31007KT 18/16 A2998 RMK A01 T01800155  RH  086%=      5-min Rain = 0
KCR1 161038Z 31006KT 18/16 A2998 RMK A01 T01800155  RH  085%=      5-min Rain = 0
KCR1 161039Z 31007KT 18/16 A2998 RMK A01 T01800155  RH  085%=      5-min Rain = 0
KCR1 161040Z 30007KT 18/15 A2998 RMK A01 T01810154  RH  085%=      5-min Rain = 0
KCR1 161041Z 31006KT 18/15 A2999 RMK A01 T01810154  RH  084%=      5-min Rain = 0
KCR1 161042Z 31007KT 18/15 A2999 RMK A01 T01820154  RH  084%=      5-min Rain = 0
KCR1 161043Z 31007KT 18/15 A2999 RMK A01 T01820154  RH  084%=      5-min Rain = 0
KCR1 161044Z 31007KT 18/15 A2999 RMK A01 T01830154  RH  083%=      5-min Rain = 0
KCR1 161045Z 31008KT 18/15 A2999 RMK A01 T01840154  RH  083%=      5-min Rain = 0
KCR1 161046Z 32007KT 18/15 A2999 RMK A01 T01840153  RH  082%=      5-min Rain = 0
KCR1 161047Z 32007KT 19/15 A2999 RMK A01 T01850154  RH  082%=      5-min Rain = 0
KCR1 161048Z 33007KT 19/15 A2999 RMK A01 T01860154  RH  081%=      5-min Rain = 0
KCR1 161049Z 33006KT 19/15 A2998 RMK A01 T01870154  RH  081%=      5-min Rain = 0
KCR1 161050Z 33006KT 19/15 A2998 RMK A01 T01870154  RH  081%=      5-min Rain = 0
KCR1 161051Z 34006KT 19/15 A2998 RMK A01 T01870154  RH  081%=      5-min Rain = 0
KCR1 161052Z 34005KT 19/16 A2998 RMK A01 T01870155  RH  082%=      5-min Rain = 0
KCR1 161053Z 33005KT 19/16 A2998 RMK A01 T01870155  RH  082%=      5-min Rain = 0
KCR1 161054Z 34007KT 19/15 A2997 RMK A01 T01870154  RH  081%=      5-min Rain = 0
KCR1 161055Z 34006KT 19/15 A2997 RMK A01 T01870154  RH  081%=      5-min Rain = 0
KCR1 161056Z 34007KT 19/16 A2997 RMK A01 T01870155  RH  082%=      5-min Rain = 0
KCR1 161057Z 34007KT 19/16 A2997 RMK A01 T01870155  RH  082%=      5-min Rain = 0
KCR1 161058Z 34008KT 19/15 A2998 RMK A01 T01870154  RH  081%=      5-min Rain = 0
KCR1 161059Z 34007KT 19/15 A2998 RMK A01 T01880154  RH  081%=      5-min Rain = 0
KCR1 161100Z 34008KT 19/15 A2998 RMK A01 T01880154  RH  081%=      5-min Rain = 0
KCR1 161101Z 33008KT 19/16 A2998 RMK A01 T01880155  RH  081%=      5-min Rain = 0
KCR1 161102Z 32010KT 19/15 A2999 RMK A01 T01880154  RH  081%=      5-min Rain = 0
KCR1 161103Z 31011KT 19/15 A2999 RMK A01 T01880153  RH  080%=      5-min Rain = 0
KCR1 161104Z 31011KT 19/15 A2999 RMK A01 T01890153  RH  080%=      5-min Rain = 0
KCR1 161105Z 31011KT 19/15 A2999 RMK A01 T01890153  RH  079%=      5-min Rain = 0
KCR1 161106Z 31010KT 19/15 A2999 RMK A01 T01890153  RH  080%=      5-min Rain = 0
KCR1 161107Z 31011KT 19/15 A2999 RMK A01 T01890153  RH  080%=      5-min Rain = 0
KCR1 161108Z 31009KT 19/15 A2999 RMK A01 T01880153  RH  080%=      5-min Rain = 0
KCR1 161109Z 31007KT 19/15 A2999 RMK A01 T01880153  RH  080%=      5-min Rain = 0
KCR1 161110Z 32008KT 19/15 A2999 RMK A01 T01880153  RH  080%=      5-min Rain = 0
KCR1 161111Z 32006KT 19/15 A2998 RMK A01 T01880154  RH  081%=      5-min Rain = 0
KCR1 161112Z 33007KT 19/15 A2998 RMK A01 T01870154  RH  081%=      5-min Rain = 0
KCR1 161113Z 34007KT 19/15 A2998 RMK A01 T01870153  RH  081%=      5-min Rain = 0
KCR1 161114Z 34007KT 19/15 A2998 RMK A01 T01870154  RH  081%=      5-min Rain = 0
KCR1 161115Z 34006KT 19/16 A2998 RMK A01 T01870155  RH  081%=      5-min Rain = 0
KCR1 161116Z 34005KT 19/16 A2997 RMK A01 T01870155  RH  081%=      5-min Rain = 0
KCR1 161117Z 34006KT 19/15 A2997 RMK A01 T01870154  RH  081%=      5-min Rain = 0
KCR1 161118Z 34005KT 19/15 A2997 RMK A01 T01860154  RH  081%=      5-min Rain = 0
KCR1 161119Z 33007KT 19/15 A2997 RMK A01 T01870154  RH  081%=      5-min Rain = 0
KCR1 161120Z 35007KT 19/16 A2997 RMK A01 T01860155  RH  082%=      5-min Rain = 0
KCR1 161121Z 36006KT 19/16 A2997 RMK A01 T01860156  RH  082%=      5-min Rain = 0
KCR1 161122Z 36005KT 19/16 A2997 RMK A01 T01860157  RH  083%=      5-min Rain = 0
KCR1 161123Z 35006KT 19/16 A2997 RMK A01 T01850157  RH  084%=      5-min Rain = 0
KCR1 161124Z 34005KT 18/16 A2998 RMK A01 T01840157  RH  084%=      5-min Rain = 0
KCR1 161125Z 33005KT 18/16 A2998 RMK A01 T01840157  RH  084%=      5-min Rain = 0
KCR1 161126Z 31005KT 18/16 A2998 RMK A01 T01830156  RH  084%=      5-min Rain = 0
KCR1 161127Z 33005KT 18/16 A2998 RMK A01 T01830157  RH  084%=      5-min Rain = 0
KCR1 161128Z 33005KT 18/16 A2997 RMK A01 T01830156  RH  084%=      5-min Rain = 0
KCR1 161129Z 34005KT 18/16 A2997 RMK A01 T01830156  RH  084%=      5-min Rain = 0
KCR1 161130Z 34005KT 18/16 A2997 RMK A01 T01830157  RH  085%=      5-min Rain = 0
KCR1 161131Z 35006KT 18/16 A2997 RMK A01 T01830157  RH  085%=      5-min Rain = 0
KCR1 161132Z 35007KT 18/16 A2997 RMK A01 T01830156  RH  084%=      5-min Rain = 0
KCR1 161133Z 34007KT 18/16 A2997 RMK A01 T01830156  RH  084%=      5-min Rain = 0
KCR1 161134Z 34008KT 18/16 A2997 RMK A01 T01830156  RH  084%=      5-min Rain = 0
KCR1 161135Z 33010KT 18/16 A2998 RMK A01 T01830157  RH  085%=      5-min Rain = 0
KCR1 161136Z 33011KT 18/16 A2998 RMK A01 T01830157  RH  085%=      5-min Rain = 0
KCR1 161137Z 32010KT 18/16 A2998 RMK A01 T01830157  RH  085%=      5-min Rain = 0
KCR1 161138Z 32009KT 18/16 A2998 RMK A01 T01820158  RH  085%=      5-min Rain = 0
KCR1 161139Z 32008KT 18/16 A2998 RMK A01 T01820157  RH  085%=      5-min Rain = 0
KCR1 161140Z 32007KT 18/16 A2997 RMK A01 T01820157  RH  085%=      5-min Rain = 0
KCR1 161141Z 30004KT 18/16 A2997 RMK A01 T01820158  RH  086%=      5-min Rain = 0
KCR1 161142Z 28003KT 18/16 A2996 RMK A01 T01820156  RH  085%=      5-min Rain = 0
KCR1 161143Z 21002KT 18/16 A2995 RMK A01 T01820156  RH  085%=      5-min Rain = 0
KCR1 161144Z 17003KT 18/16 A2994 RMK A01 T01820157  RH  085%=      5-min Rain = 0
KCR1 161145Z 16004KT 18/16 A2993 RMK A01 T01820158  RH  086%=      5-min Rain = 0
KCR1 161146Z 16005KT 18/16 A2993 RMK A01 T01810158  RH  086%=      5-min Rain = 0
KCR1 161147Z 15004KT 18/16 A2993 RMK A01 T01810159  RH  087%=      5-min Rain = 0
KCR1 161148Z 14004KT 18/16 A2994 RMK A01 T01810159  RH  087%=      5-min Rain = 0
KCR1 161149Z 12003KT 18/16 A2994 RMK A01 T01810159  RH  087%=      5-min Rain = 0
KCR1 161150Z 09003KT 18/16 A2995 RMK A01 T01810160  RH  088%=      5-min Rain = 0
KCR1 161151Z 05004KT 18/16 A2995 RMK A01 T01810160  RH  088%=      5-min Rain = 0
KCR1 161152Z 04007KT 18/16 A2996 RMK A01 T01810160  RH  088%=      5-min Rain = 0
KCR1 161153Z 04009KT 18/16 A2996 RMK A01 T01810162  RH  089%=      5-min Rain = 0
KCR1 161154Z 04007KT 18/16 A2995 RMK A01 T01800162  RH  089%=      5-min Rain = 0
KCR1 161155Z 06006KT 18/16 A2995 RMK A01 T01800162  RH  089%=      5-min Rain = 0
KCR1 161156Z 08005KT 18/16 A2995 RMK A01 T01790161  RH  089%=      5-min Rain = 0
KCR1 161157Z 10005KT 18/16 A2994 RMK A01 T01790160  RH  089%=      5-min Rain = 0
KCR1 161158Z 12006KT 18/16 A2994 RMK A01 T01790160  RH  089%=      5-min Rain = 0
KCR1 161159Z 13007KT 18/16 A2994 RMK A01 T01790160  RH  089%=      5-min Rain = 0
KCR1 161200Z 14007KT 18/16 A2994 RMK A01 T01780160  RH  089%=      5-min Rain = 0
KCR1 161201Z 15007KT 18/16 A2994 RMK A01 T01780161  RH  089%=      5-min Rain = 0
KCR1 161202Z 16005KT 18/16 A2995 RMK A01 T01780161  RH  090%=      5-min Rain = 0
KCR1 161203Z 18003KT 18/16 A2996 RMK A01 T01780161  RH  090%=      5-min Rain = 0
KCR1 161204Z 27002KT 18/16 A2997 RMK A01 T01780162  RH  090%=      5-min Rain = 0
KCR1 161205Z 31006KT 18/16 A2998 RMK A01 T01780161  RH  090%=      5-min Rain = 0
KCR1 161206Z 32009KT 18/16 A2998 RMK A01 T01790162  RH  090%=      5-min Rain = 0
KCR1 161207Z 32012KT 18/16 A2999 RMK A01 T01790161  RH  089%=      5-min Rain = 0
KCR1 161208Z 32010KT 18/16 A2999 RMK A01 T01800161  RH  089%=      5-min Rain = 0
KCR1 161209Z 31008KT 18/16 A2999 RMK A01 T01810161  RH  088%=      5-min Rain = 0
KCR1 161210Z 33006KT 18/16 A2999 RMK A01 T01810161  RH  088%=      5-min Rain = 0
KCR1 161211Z 33006KT 18/16 A2998 RMK A01 T01810160  RH  088%=      5-min Rain = 0
KCR1 161212Z 33004KT 18/16 A2998 RMK A01 T01810160  RH  087%=      5-min Rain = 0
KCR1 161213Z 31004KT 18/16 A2998 RMK A01 T01810160  RH  087%=      5-min Rain = 0
KCR1 161214Z 27003KT 18/16 A2998 RMK A01 T01810160  RH  087%=      5-min Rain = 0
KCR1 161215Z 25003KT 18/16 A2998 RMK A01 T01820160  RH  087%=      5-min Rain = 0
KCR1 161216Z 23003KT 18/16 A2998 RMK A01 T01820161  RH  087%=      5-min Rain = 0
KCR1 161217Z 21004KT 18/16 A2998 RMK A01 T01830161  RH  087%=      5-min Rain = 0
KCR1 161218Z 20004KT 18/16 A2998 RMK A01 T01830162  RH  087%=      5-min Rain = 0
KCR1 161219Z 20004KT 18/16 A2998 RMK A01 T01840161  RH  087%=      5-min Rain = 0
KCR1 161220Z 21004KT 18/16 A2998 RMK A01 T01840162  RH  087%=      5-min Rain = 0
KCR1 161221Z 22005KT 19/16 A2998 RMK A01 T01850163  RH  087%=      5-min Rain = 0
KCR1 161222Z 23005KT 19/16 A2998 RMK A01 T01850163  RH  087%=      5-min Rain = 0
KCR1 161223Z 22005KT 18/16 A2998 RMK A01 T01840162  RH  087%=      5-min Rain = 0
KCR1 161224Z 23004KT 18/16 A2998 RMK A01 T01840162  RH  087%=      5-min Rain = 0
KCR1 161225Z 24005KT 18/16 A2998 RMK A01 T01840163  RH  088%=      5-min Rain = 0
KCR1 161226Z 25006KT 18/16 A2998 RMK A01 T01840164  RH  088%=      5-min Rain = 0
KCR1 161227Z 25007KT 18/16 A2999 RMK A01 T01840163  RH  088%=      5-min Rain = 0
KCR1 161228Z 24006KT 18/16 A2999 RMK A01 T01840163  RH  088%=      5-min Rain = 0
KCR1 161229Z 23006KT 18/16 A2998 RMK A01 T01840164  RH  088%=      5-min Rain = 0
KCR1 161230Z 23006KT 18/16 A2998 RMK A01 T01840163  RH  088%=      5-min Rain = 0
KCR1 161231Z 23006KT 18/16 A2999 RMK A01 T01840163  RH  088%=      5-min Rain = 0
KCR1 161232Z 23006KT 19/16 A2999 RMK A01 T01850164  RH  088%=      5-min Rain = 0
KCR1 161233Z 23006KT 19/16 A2999 RMK A01 T01850164  RH  088%=      5-min Rain = 0
KCR1 161234Z 23005KT 19/16 A2999 RMK A01 T01850164  RH  088%=      5-min Rain = 0
KCR1 161235Z 22004KT 19/17 A2999 RMK A01 T01850165  RH  088%=      5-min Rain = 0
KCR1 161236Z 21003KT 19/17 A2999 RMK A01 T01850165  RH  088%=      5-min Rain = 0
KCR1 161237Z 19002KT 19/17 A2999 RMK A01 T01860166  RH  088%=      5-min Rain = 0
KCR1 161238Z 10002KT 19/17 A2999 RMK A01 T01860165  RH  088%=      5-min Rain = 0
KCR1 161239Z 07005KT 19/17 A30 RMK A01 T01870167  RH  088%=      5-min Rain = 0
KCR1 161240Z 07005KT 19/17 A30 RMK A01 T01870168  RH  088%=      5-min Rain = 0
KCR1 161241Z 09004KT 19/17 A30 RMK A01 T01870166  RH  087%=      5-min Rain = 0
KCR1 161242Z 10004KT 19/16 A30 RMK A01 T01880164  RH  086%=      5-min Rain = 0
KCR1 161243Z 10004KT 19/16 A30 RMK A01 T01880164  RH  086%=      5-min Rain = 0
KCR1 161244Z 13003KT 19/16 A30 RMK A01 T01880164  RH  086%=      5-min Rain = 0
KCR1 161245Z 13003KT 19/16 A30 RMK A01 T01880163  RH  085%=      5-min Rain = 0
KCR1 161246Z 13004KT 19/16 A30 RMK A01 T01870164  RH  086%=      5-min Rain = 0
KCR1 161247Z 13004KT 19/17 A30 RMK A01 T01880166  RH  088%=      5-min Rain = 0
KCR1 161248Z 13004KT 19/17 A30 RMK A01 T01880167  RH  088%=      5-min Rain = 0
KCR1 161249Z 13004KT 19/17 A30 RMK A01 T01870167  RH  088%=      5-min Rain = 0
KCR1 161250Z 14004KT 19/17 A30 RMK A01 T01870166  RH  088%=      5-min Rain = 0
KCR1 161251Z 15005KT 19/17 A30 RMK A01 T01860166  RH  088%=      5-min Rain = 0
KCR1 161252Z 15005KT 19/17 A30 RMK A01 T01870166  RH  088%=      5-min Rain = 0
KCR1 161253Z 16004KT 19/17 A30 RMK A01 T01860167  RH  088%=      5-min Rain = 0
KCR1 161254Z 17005KT 19/17 A30 RMK A01 T01860168  RH  089%=      5-min Rain = 0
KCR1 161255Z 17005KT 19/17 A30 RMK A01 T01860167  RH  089%=      5-min Rain = 0
KCR1 161256Z 17004KT 19/17 A30 RMK A01 T01860167  RH  089%=      5-min Rain = 0
KCR1 161257Z 18003KT 19/17 A30 RMK A01 T01860167  RH  089%=      5-min Rain = 0
KCR1 161258Z 19002KT 19/17 A30 RMK A01 T01860167  RH  089%=      5-min Rain = 0
KCR1 161259Z 23001KT 19/17 A30 RMK A01 T01860167  RH  089%=      5-min Rain = 0
KCR1 161300Z 27001KT 19/17 A30 RMK A01 T01860167  RH  089%=      5-min Rain = 0
KCR1 161301Z 29001KT 19/17 A30 RMK A01 T01860167  RH  089%=      5-min Rain = 0
KCR1 161302Z 29002KT 19/17 A30 RMK A01 T01860167  RH  089%=      5-min Rain = 0
KCR1 161303Z 29002KT 19/17 A30 RMK A01 T01860167  RH  089%=      5-min Rain = 0
KCR1 161304Z 28002KT 19/17 A30 RMK A01 T01860167  RH  089%=      5-min Rain = 0
KCR1 161305Z 26002KT 19/17 A30 RMK A01 T01860168  RH  089%=      5-min Rain = 0
KCR1 161306Z 26002KT 19/17 A30 RMK A01 T01860167  RH  089%=      5-min Rain = 0
KCR1 161307Z 25002KT 19/17 A3001 RMK A01 T01870168  RH  089%=      5-min Rain = 0
KCR1 161308Z 24002KT 19/17 A3001 RMK A01 T01870167  RH  088%=      5-min Rain = 0
KCR1 161309Z 24002KT 19/17 A3001 RMK A01 T01870168  RH  089%=      5-min Rain = 0
KCR1 161310Z 23002KT 19/17 A3001 RMK A01 T01880168  RH  088%=      5-min Rain = 0
KCR1 161311Z 24002KT 19/17 A3001 RMK A01 T01880167  RH  088%=      5-min Rain = 0
KCR1 161312Z 25001KT 19/17 A3001 RMK A01 T01880167  RH  088%=      5-min Rain = 0
KCR1 161313Z 27001KT 19/17 A3001 RMK A01 T01880167  RH  087%=      5-min Rain = 0
KCR1 161314Z 02000KT 19/17 A3001 RMK A01 T01890166  RH  087%=      5-min Rain = 0
KCR1 161315Z 02001KT 19/17 A3001 RMK A01 T01890166  RH  086%=      5-min Rain = 0
KCR1 161316Z 03002KT 19/17 A3002 RMK A01 T01890166  RH  086%=      5-min Rain = 0
KCR1 161317Z 00002KT 19/17 A3002 RMK A01 T01900167  RH  087%=      5-min Rain = 0
KCR1 161318Z 35002KT 19/17 A3002 RMK A01 T01900168  RH  087%=      5-min Rain = 0
KCR1 161319Z 01002KT 19/17 A3002 RMK A01 T01900168  RH  087%=      5-min Rain = 0
KCR1 161320Z 03003KT 19/17 A3002 RMK A01 T01900169  RH  087%=      5-min Rain = 0
KCR1 161321Z 04003KT 19/17 A3002 RMK A01 T01910170  RH  088%=      5-min Rain = 0
KCR1 161322Z 06003KT 19/17 A3002 RMK A01 T01910171  RH  088%=      5-min Rain = 0
KCR1 161323Z 07003KT 19/17 A3002 RMK A01 T01910171  RH  088%=      5-min Rain = 0
KCR1 161324Z 08002KT 19/17 A3003 RMK A01 T01910170  RH  088%=      5-min Rain = 0
KCR1 161325Z 09002KT 19/17 A3003 RMK A01 T01910171  RH  088%=      5-min Rain = 0
KCR1 161326Z 08001KT 19/17 A3003 RMK A01 T01910172  RH  089%=      5-min Rain = 0
KCR1 161327Z 09001KT 19/17 A3003 RMK A01 T01910172  RH  089%=      5-min Rain = 0
KCR1 161328Z 01000KT 19/17 A3003 RMK A01 T01910171  RH  088%=      5-min Rain = 0
KCR1 161329Z 33002KT 19/17 A3003 RMK A01 T01910171  RH  088%=      5-min Rain = 0
KCR1 161330Z 31002KT 19/17 A3003 RMK A01 T01910170  RH  088%=      5-min Rain = 0
KCR1 161331Z 30003KT 19/17 A3004 RMK A01 T01910171  RH  088%=      5-min Rain = 0
KCR1 161332Z 30003KT 19/17 A3004 RMK A01 T01900169  RH  087%=      5-min Rain = 0
KCR1 161333Z 29002KT 19/17 A3004 RMK A01 T01900170  RH  088%=      5-min Rain = 0
KCR1 161334Z 29002KT 19/17 A3004 RMK A01 T01900171  RH  089%=      5-min Rain = 0
KCR1 161335Z 30002KT 19/17 A3004 RMK A01 T01900172  RH  089%=      5-min Rain = 0
KCR1 161336Z 31002KT 19/17 A3004 RMK A01 T01910171  RH  088%=      5-min Rain = 0
KCR1 161337Z 33002KT 19/17 A3005 RMK A01 T01910170  RH  087%=      5-min Rain = 0
KCR1 161338Z 33002KT 19/17 A3005 RMK A01 T01920168  RH  086%=      5-min Rain = 0
KCR1 161339Z 32001KT 19/17 A3005 RMK A01 T01920168  RH  086%=      5-min Rain = 0
KCR1 161340Z 29001KT 19/17 A3005 RMK A01 T01920169  RH  086%=      5-min Rain = 0
KCR1 161341Z 30001KT 19/17 A3005 RMK A01 T01930168  RH  086%=      5-min Rain = 0
KCR1 161342Z 32002KT 19/17 A3005 RMK A01 T01930167  RH  085%=      5-min Rain = 0
KCR1 161343Z 33002KT 19/17 A3006 RMK A01 T01930167  RH  085%=      5-min Rain = 0
KCR1 161344Z 34002KT 19/17 A3006 RMK A01 T01930167  RH  085%=      5-min Rain = 0
KCR1 161345Z 33002KT 19/17 A3006 RMK A01 T01930169  RH  086%=      5-min Rain = 0
KCR1 161346Z 33002KT 19/17 A3006 RMK A01 T01940167  RH  085%=      5-min Rain = 0
KCR1 161347Z 33001KT 19/17 A3006 RMK A01 T01930168  RH  085%=      5-min Rain = 0
KCR1 161348Z 33003KT 19/17 A3006 RMK A01 T01940168  RH  085%=      5-min Rain = 0
KCR1 161349Z 33003KT 19/17 A3006 RMK A01 T01940170  RH  086%=      5-min Rain = 0
KCR1 161350Z 33005KT 19/17 A3006 RMK A01 T01940173  RH  088%=      5-min Rain = 0
KCR1 161351Z 32004KT 20/17 A3006 RMK A01 T01950173  RH  087%=      5-min Rain = 0
KCR1 161352Z 31005KT 20/17 A3006 RMK A01 T01950173  RH  087%=      5-min Rain = 0
KCR1 161353Z 30005KT 19/17 A3006 RMK A01 T01940172  RH  087%=      5-min Rain = 0
KCR1 161354Z 30004KT 20/17 A3006 RMK A01 T01950173  RH  087%=      5-min Rain = 0
KCR1 161355Z 29004KT 20/17 A3006 RMK A01 T01950172  RH  087%=      5-min Rain = 0
KCR1 161356Z 30004KT 20/17 A3006 RMK A01 T01950171  RH  086%=      5-min Rain = 0
KCR1 161357Z 31002KT 19/17 A3006 RMK A01 T01940172  RH  087%=      5-min Rain = 0
KCR1 161358Z 33003KT 20/17 A3006 RMK A01 T01950173  RH  087%=      5-min Rain = 0
KCR1 161359Z 33003KT 20/17 A3006 RMK A01 T01950172  RH  086%=      5-min Rain = 0
KCR1 161400Z 33003KT 20/17 A3006 RMK A01 T01950169  RH  085%=      5-min Rain = 0
KCR1 161401Z 33001KT 20/17 A3006 RMK A01 T01950165  RH  083%=      5-min Rain = 0
KCR1 161402Z 04000KT 20/16 A3005 RMK A01 T01950161  RH  081%=      5-min Rain = 0
KCR1 161403Z 03001KT 20/16 A3005 RMK A01 T01950160  RH  080%=      5-min Rain = 0
KCR1 161404Z 05001KT 20/16 A3005 RMK A01 T01950158  RH  079%=      5-min Rain = 0
KCR1 161405Z 01003KT 20/16 A3005 RMK A01 T01960163  RH  081%=      5-min Rain = 0
KCR1 161406Z 01004KT 20/17 A3005 RMK A01 T01960165  RH  082%=      5-min Rain = 0
KCR1 161407Z 36003KT 20/16 A3005 RMK A01 T01960163  RH  081%=      5-min Rain = 0
KCR1 161408Z 35003KT 20/16 A3005 RMK A01 T01960164  RH  082%=      5-min Rain = 0
KCR1 161409Z 34002KT 20/17 A3005 RMK A01 T01960165  RH  083%=      5-min Rain = 0
KCR1 161410Z 34003KT 20/17 A3005 RMK A01 T01960166  RH  083%=      5-min Rain = 0
KCR1 161411Z 35004KT 20/17 A3005 RMK A01 T01950165  RH  083%=      5-min Rain = 0
KCR1 161412Z 00004KT 20/16 A3005 RMK A01 T01950164  RH  082%=      5-min Rain = 0
KCR1 161413Z 01005KT 20/16 A3005 RMK A01 T01950164  RH  082%=      5-min Rain = 0
KCR1 161414Z 02004KT 19/16 A3005 RMK A01 T01940164  RH  082%=      5-min Rain = 0
KCR1 161415Z 03003KT 19/16 A3004 RMK A01 T01940164  RH  083%=      5-min Rain = 0
KCR1 161416Z 02002KT 19/16 A3004 RMK A01 T01940163  RH  082%=      5-min Rain = 0
KCR1 161417Z 01000KT 19/16 A3004 RMK A01 T01940162  RH  082%=      5-min Rain = 0
KCR1 161418Z 21000KT 19/16 A3004 RMK A01 T01940163  RH  082%=      5-min Rain = 0
KCR1 161419Z 21001KT 19/16 A3004 RMK A01 T01940162  RH  082%=      5-min Rain = 0
KCR1 161420Z 21002KT 19/16 A3004 RMK A01 T01930162  RH  082%=      5-min Rain = 0
KCR1 161421Z 20002KT 19/16 A3003 RMK A01 T01930163  RH  083%=      5-min Rain = 0
KCR1 161422Z 20003KT 19/16 A3003 RMK A01 T01930164  RH  083%=      5-min Rain = 0
KCR1 161423Z 20004KT 19/17 A3003 RMK A01 T01940165  RH  083%=      5-min Rain = 0
KCR1 161424Z 21005KT 19/17 A3003 RMK A01 T01940165  RH  083%=      5-min Rain = 0
KCR1 161425Z 21006KT 20/17 A3003 RMK A01 T01950165  RH  083%=      5-min Rain = 0
KCR1 161426Z 22006KT 20/17 A3004 RMK A01 T01950165  RH  083%=      5-min Rain = 0
KCR1 161427Z 23005KT 20/16 A3004 RMK A01 T01950164  RH  082%=      5-min Rain = 0
KCR1 161428Z 25005KT 20/17 A3004 RMK A01 T01950167  RH  083%=      5-min Rain = 0
KCR1 161429Z 27004KT 20/17 A3005 RMK A01 T01950166  RH  083%=      5-min Rain = 0
KCR1 161430Z 30005KT 20/17 A3006 RMK A01 T01950165  RH  083%=      5-min Rain = 0
KCR1 161431Z 32007KT 20/17 A3006 RMK A01 T01960166  RH  083%=      5-min Rain = 0
KCR1 161432Z 34008KT 20/17 A3007 RMK A01 T01960168  RH  084%=      5-min Rain = 0
KCR1 161433Z 35008KT 20/17 A3007 RMK A01 T01960167  RH  083%=      5-min Rain = 0
KCR1 161434Z 36010KT 20/17 A3007 RMK A01 T01960169  RH  084%=      5-min Rain = 0
KCR1 161435Z 36010KT 20/17 A3008 RMK A01 T01960170  RH  085%=      5-min Rain = 0
KCR1 161436Z 36009KT 20/17 A3008 RMK A01 T01960170  RH  085%=      5-min Rain = 0
KCR1 161437Z 36013KT 20/17 A3008 RMK A01 T01960171  RH  086%=      5-min Rain = 0
KCR1 161438Z 35011KT 19/17 A3008 RMK A01 T01940172  RH  087%=      5-min Rain = 0
KCR1 161439Z 34010KT 19/17 A3007 RMK A01 T01930172  RH  088%=      5-min Rain = 0
KCR1 161440Z 34008KT 19/17 A3007 RMK A01 T01920171  RH  088%=      5-min Rain = 0
KCR1 161441Z 36008KT 19/17 A3007 RMK A01 T01910171  RH  088%=      5-min Rain = 0
KCR1 161442Z 01009KT 19/17 A3007 RMK A01 T01910171  RH  088%=      5-min Rain = 0
KCR1 161443Z 01010KT 19/17 A3007 RMK A01 T01910171  RH  088%=      5-min Rain = 0
KCR1 161444Z 01011KT 19/17 A3007 RMK A01 T01910171  RH  088%=      5-min Rain = 0
KCR1 161445Z 01010KT 19/17 A3007 RMK A01 T01910171  RH  088%=      5-min Rain = 0
KCR1 161446Z 01010KT 19/17 A3007 RMK A01 T01910171  RH  088%=      5-min Rain = 0
KCR1 161447Z 01010KT 19/17 A3007 RMK A01 T01910170  RH  088%=      5-min Rain = 0
KCR1 161448Z 00009KT 19/17 A3006 RMK A01 T01910171  RH  088%=      5-min Rain = 0
KCR1 161449Z 01007KT 19/17 A3006 RMK A01 T01920171  RH  088%=      5-min Rain = 0
KCR1 161450Z 02006KT 19/17 A3005 RMK A01 T01910171  RH  088%=      5-min Rain = 0
KCR1 161451Z 03006KT 19/17 A3005 RMK A01 T01920170  RH  087%=      5-min Rain = 0
KCR1 161452Z 04004KT 19/17 A3005 RMK A01 T01910170  RH  087%=      5-min Rain = 0
KCR1 161453Z 04004KT 19/17 A3005 RMK A01 T01920170  RH  087%=      5-min Rain = 0
KCR1 161454Z 03004KT 19/17 A3005 RMK A01 T01920170  RH  087%=      5-min Rain = 0
KCR1 161455Z 01006KT 19/17 A3005 RMK A01 T01920171  RH  087%=      5-min Rain = 0
KCR1 161456Z 01007KT 19/17 A3006 RMK A01 T01930171  RH  087%=      5-min Rain = 0
KCR1 161457Z 36008KT 19/17 A3006 RMK A01 T01930172  RH  087%=      5-min Rain = 0
KCR1 161458Z 35008KT 19/17 A3006 RMK A01 T01940171  RH  086%=      5-min Rain = 0
KCR1 161459Z 34006KT 19/17 A3006 RMK A01 T01940170  RH  086%=      5-min Rain = 0
KCR1 161500Z 32004KT 19/17 A3006 RMK A01 T01940170  RH  086%=      5-min Rain = 0
KCR1 161501Z 31004KT 19/17 A3006 RMK A01 T01940171  RH  087%=      5-min Rain = 0
KCR1 161502Z 31005KT 19/17 A3006 RMK A01 T01940171  RH  087%=      5-min Rain = 0
KCR1 161503Z 28003KT 19/17 A3006 RMK A01 T01940171  RH  086%=      5-min Rain = 0
KCR1 161504Z 29004KT 20/17 A3006 RMK A01 T01950174  RH  088%=      5-min Rain = 0
KCR1 161505Z 28004KT 20/17 A3006 RMK A01 T01960172  RH  086%=      5-min Rain = 0
KCR1 161506Z 28003KT 20/17 A3006 RMK A01 T01970171  RH  085%=      5-min Rain = 0
KCR1 161507Z 24003KT 20/17 A3005 RMK A01 T01980171  RH  084%=      5-min Rain = 0
KCR1 161508Z 24003KT 20/17 A3005 RMK A01 T01980171  RH  084%=      5-min Rain = 0
KCR1 161509Z 22004KT 20/17 A3004 RMK A01 T01990174  RH  085%=      5-min Rain = 0
KCR1 161510Z 21005KT 20/18 A3003 RMK A01 T02020178  RH  086%=      5-min Rain = 0
KCR1 161511Z 22008KT 20/18 A3003 RMK A01 T02040176  RH  084%=      5-min Rain = 0
KCR1 161512Z 21007KT 21/18 A3003 RMK A01 T02050179  RH  085%=      5-min Rain = 0
KCR1 161513Z 20009KT 21/18 A3002 RMK A01 T02070177  RH  083%=      5-min Rain = 0
KCR1 161514Z 20009KT 21/18 A3002 RMK A01 T02080179  RH  083%=      5-min Rain = 0
KCR1 161515Z 20009KT 21/18 A3002 RMK A01 T02080178  RH  083%=      5-min Rain = 0
KCR1 161516Z 21008KT 21/18 A3002 RMK A01 T02080177  RH  083%=      5-min Rain = 0
KCR1 161517Z 21010KT 21/18 A3002 RMK A01 T02080176  RH  082%=      5-min Rain = 0
KCR1 161518Z 21010KT 21/17 A3001 RMK A01 T02090171  RH  079%=      5-min Rain = 0
KCR1 161519Z 21008KT 21/17 A3001 RMK A01 T02100173  RH  079%=      5-min Rain = 0
KCR1 161520Z 21008KT 21/18 A3001 RMK A01 T02110177  RH  081%=      5-min Rain = 0
KCR1 161521Z 21009KT 21/18 A3001 RMK A01 T02120177  RH  080%=      5-min Rain = 0
KCR1 161522Z 20008KT 21/17 A3001 RMK A01 T02130174  RH  078%=      5-min Rain = 0
KCR1 161523Z 20007KT 21/18 A3001 RMK A01 T02130178  RH  080%=      5-min Rain = 0
KCR1 161524Z 20007KT 21/17 A3001 RMK A01 T02130173  RH  078%=      5-min Rain = 0
KCR1 161525Z 18006KT 21/17 A3001 RMK A01 T02110166  RH  076%=      5-min Rain = 0
KCR1 161526Z 18006KT 21/17 A3001 RMK A01 T02100166  RH  076%=      5-min Rain = 0
KCR1 161527Z 15005KT 21/17 A3001 RMK A01 T02100170  RH  078%=      5-min Rain = 0
KCR1 161528Z 15007KT 21/17 A3001 RMK A01 T02120171  RH  077%=      5-min Rain = 0
KCR1 161529Z 15007KT 21/17 A3001 RMK A01 T02130171  RH  077%=      5-min Rain = 0
KCR1 161530Z 15005KT 21/17 A3001 RMK A01 T02140173  RH  077%=      5-min Rain = 0
KCR1 161531Z 17006KT 22/17 A3002 RMK A01 T02150173  RH  077%=      5-min Rain = 0
KCR1 161532Z 13005KT 22/17 A3002 RMK A01 T02160173  RH  077%=      5-min Rain = 0
KCR1 161533Z 11006KT 21/17 A3002 RMK A01 T02140173  RH  077%=      5-min Rain = 0
KCR1 161534Z 09006KT 21/17 A3002 RMK A01 T02130174  RH  078%=      5-min Rain = 0
KCR1 161535Z 08006KT 21/17 A3002 RMK A01 T02120173  RH  078%=      5-min Rain = 0
KCR1 161536Z 06007KT 21/17 A3002 RMK A01 T02120172  RH  078%=      5-min Rain = 0
KCR1 161537Z 07006KT 21/17 A3002 RMK A01 T02110172  RH  078%=      5-min Rain = 0
KCR1 161538Z 09006KT 21/17 A3002 RMK A01 T02110174  RH  079%=      5-min Rain = 0
KCR1 161539Z 09005KT 21/17 A3002 RMK A01 T02120172  RH  078%=      5-min Rain = 0
KCR1 161540Z 10005KT 21/17 A3002 RMK A01 T02120172  RH  078%=      5-min Rain = 0
KCR1 161541Z 09007KT 21/17 A3001 RMK A01 T02120170  RH  077%=      5-min Rain = 0
KCR1 161542Z 10006KT 21/17 A3001 RMK A01 T02100172  RH  079%=      5-min Rain = 0
KCR1 161543Z 10005KT 21/17 A3001 RMK A01 T02090172  RH  079%=      5-min Rain = 0
KCR1 161544Z 11006KT 21/17 A3002 RMK A01 T02080170  RH  079%=      5-min Rain = 0
KCR1 161545Z 10004KT 21/17 A3002 RMK A01 T02070168  RH  078%=      5-min Rain = 0
KCR1 161546Z 05004KT 21/17 A3003 RMK A01 T02060169  RH  079%=      5-min Rain = 0
KCR1 161547Z 03006KT 21/17 A3003 RMK A01 T02060168  RH  079%=      5-min Rain = 0
KCR1 161548Z 02010KT 21/17 A3004 RMK A01 T02070171  RH  080%=      5-min Rain = 0
KCR1 161549Z 01013KT 21/17 A3006 RMK A01 T02080172  RH  080%=      5-min Rain = 0
KCR1 161550Z 01015KT 21/17 A3006 RMK A01 T02080172  RH  080%=      5-min Rain = 0
KCR1 161551Z 01013KT 21/17 A3007 RMK A01 T02080173  RH  080%=      5-min Rain = 0
KCR1 161552Z 01010KT 21/18 A3007 RMK A01 T02080175  RH  081%=      5-min Rain = 0
KCR1 161553Z 00010KT 21/17 A3007 RMK A01 T02080174  RH  081%=      5-min Rain = 0
KCR1 161554Z 35008KT 21/17 A3007 RMK A01 T02070173  RH  081%=      5-min Rain = 0
KCR1 161555Z 35009KT 21/17 A3007 RMK A01 T02060172  RH  081%=      5-min Rain = 0
KCR1 161556Z 34010KT 21/17 A3008 RMK A01 T02060173  RH  081%=      5-min Rain = 0
KCR1 161557Z 34010KT 21/17 A3008 RMK A01 T02060171  RH  080%=      5-min Rain = 0
KCR1 161558Z 34009KT 21/17 A3007 RMK A01 T02060171  RH  080%=      5-min Rain = 0
KCR1 161559Z 36008KT 21/17 A3007 RMK A01 T02060173  RH  081%=      5-min Rain = 0
KCR1 161600Z 35007KT 21/17 A3006 RMK A01 T02060172  RH  081%=      5-min Rain = 0
KCR1 161601Z 35009KT 21/17 A3006 RMK A01 T02060170  RH  080%=      5-min Rain = 0
KCR1 161602Z 34010KT 21/17 A3007 RMK A01 T02050173  RH  082%=      5-min Rain = 0
KCR1 161603Z 33010KT 21/18 A3008 RMK A01 T02060176  RH  083%=      5-min Rain = 0
KCR1 161604Z 34009KT 21/18 A3008 RMK A01 T02070176  RH  082%=      5-min Rain = 0
KCR1 161605Z 34011KT 21/18 A3007 RMK A01 T02080175  RH  082%=      5-min Rain = 0
KCR1 161606Z 35009KT 21/17 A3007 RMK A01 T02070174  RH  082%=      5-min Rain = 0
KCR1 161607Z 35009KT 21/18 A3007 RMK A01 T02060175  RH  083%=      5-min Rain = 0
KCR1 161608Z 34008KT 21/18 A3007 RMK A01 T02060176  RH  083%=      5-min Rain = 0
KCR1 161609Z 34009KT 21/18 A3008 RMK A01 T02070178  RH  084%=      5-min Rain = 0
KCR1 161610Z 34009KT 21/18 A3008 RMK A01 T02070176  RH  083%=      5-min Rain = 0
KCR1 161611Z 34009KT 21/18 A3007 RMK A01 T02070176  RH  083%=      5-min Rain = 0
KCR1 161612Z 34010KT 21/17 A3007 RMK A01 T02060174  RH  082%=      5-min Rain = 0
KCR1 161613Z 34010KT 21/18 A3007 RMK A01 T02060176  RH  083%=      5-min Rain = 0
KCR1 161614Z 34010KT 21/18 A3007 RMK A01 T02060176  RH  083%=      5-min Rain = 0
KCR1 161615Z 35009KT 21/18 A3007 RMK A01 T02060176  RH  083%=      5-min Rain = 0
KCR1 161616Z 35010KT 21/18 A3007 RMK A01 T02060175  RH  082%=      5-min Rain = 0
KCR1 161617Z 34009KT 21/17 A3007 RMK A01 T02060174  RH  082%=      5-min Rain = 0
KCR1 161618Z 34008KT 21/17 A3007 RMK A01 T02060174  RH  082%=      5-min Rain = 0
KCR1 161619Z 34008KT 21/17 A3007 RMK A01 T02060173  RH  081%=      5-min Rain = 0
KCR1 161620Z 34007KT 21/17 A3007 RMK A01 T02060173  RH  081%=      5-min Rain = 0
KCR1 161621Z 35005KT 21/18 A3007 RMK A01 T02060175  RH  082%=      5-min Rain = 0
KCR1 161622Z 35006KT 21/17 A3006 RMK A01 T02070174  RH  082%=      5-min Rain = 0
KCR1 161623Z 00005KT 21/17 A3006 RMK A01 T02070174  RH  081%=      5-min Rain = 0
KCR1 161624Z 01006KT 21/18 A3006 RMK A01 T02080178  RH  083%=      5-min Rain = 0
KCR1 161625Z 01007KT 21/17 A3006 RMK A01 T02090173  RH  080%=      5-min Rain = 0
KCR1 161626Z 02007KT 21/17 A3006 RMK A01 T02100172  RH  079%=      5-min Rain = 0
KCR1 161627Z 02008KT 21/17 A3006 RMK A01 T02100171  RH  078%=      5-min Rain = 0
KCR1 161628Z 02008KT 21/17 A3006 RMK A01 T02110172  RH  079%=      5-min Rain = 0
KCR1 161629Z 01008KT 21/17 A3006 RMK A01 T02110169  RH  077%=      5-min Rain = 0
KCR1 161630Z 02009KT 21/17 A3006 RMK A01 T02120171  RH  077%=      5-min Rain = 0
KCR1 161631Z 02011KT 21/17 A3006 RMK A01 T02140170  RH  076%=      5-min Rain = 0
KCR1 161632Z 03008KT 22/17 A3006 RMK A01 T02150172  RH  076%=      5-min Rain = 0
KCR1 161633Z 02009KT 22/17 A3006 RMK A01 T02160171  RH  076%=      5-min Rain = 0
KCR1 161634Z 02008KT 22/17 A3005 RMK A01 T02160169  RH  074%=      5-min Rain = 0
KCR1 161635Z 01006KT 22/17 A3005 RMK A01 T02170170  RH  075%=      5-min Rain = 0
KCR1 161636Z 01006KT 22/17 A3005 RMK A01 T02180169  RH  074%=      5-min Rain = 0
KCR1 161637Z 35004KT 22/17 A3005 RMK A01 T02190170  RH  074%=      5-min Rain = 0
KCR1 161638Z 02003KT 22/17 A3005 RMK A01 T02200172  RH  074%=      5-min Rain = 0
KCR1 161639Z 35003KT 22/17 A3005 RMK A01 T02210169  RH  072%=      5-min Rain = 0
KCR1 161640Z 01005KT 22/17 A3005 RMK A01 T02210167  RH  071%=      5-min Rain = 0
KCR1 161641Z 02008KT 22/17 A3006 RMK A01 T02220170  RH  073%=      5-min Rain = 0
KCR1 161642Z 01008KT 22/17 A3006 RMK A01 T02230169  RH  072%=      5-min Rain = 0
KCR1 161643Z 01007KT 22/17 A3006 RMK A01 T02230172  RH  073%=      5-min Rain = 0
KCR1 161644Z 02007KT 22/17 A3006 RMK A01 T02240171  RH  072%=      5-min Rain = 0
KCR1 161645Z 01007KT 23/17 A3006 RMK A01 T02250167  RH  070%=      5-min Rain = 0
KCR1 161646Z 01006KT 23/17 A3005 RMK A01 T02250170  RH  071%=      5-min Rain = 0
KCR1 161647Z 00004KT 23/17 A3005 RMK A01 T02260171  RH  071%=      5-min Rain = 0
KCR1 161648Z 03004KT 23/17 A3005 RMK A01 T02280171  RH  070%=      5-min Rain = 0
KCR1 161649Z 05004KT 23/16 A3004 RMK A01 T02300164  RH  066%=      5-min Rain = 0
KCR1 161650Z 06005KT 23/17 A3004 RMK A01 T02320166  RH  066%=      5-min Rain = 0
KCR1 161651Z 05005KT 23/16 A3004 RMK A01 T02320163  RH  065%=      5-min Rain = 0
KCR1 161652Z 04005KT 23/17 A3004 RMK A01 T02320168  RH  067%=      5-min Rain = 0
KCR1 161653Z 04004KT 23/16 A3004 RMK A01 T02330164  RH  065%=      5-min Rain = 0
KCR1 161654Z 05002KT 23/16 A3003 RMK A01 T02340161  RH  064%=      5-min Rain = 0
KCR1 161655Z 10002KT 23/16 A3003 RMK A01 T02340164  RH  065%=      5-min Rain = 0
KCR1 161656Z 08002KT 24/16 A3003 RMK A01 T02360163  RH  064%=      5-min Rain = 0
KCR1 161657Z 13002KT 24/16 A3003 RMK A01 T02370164  RH  064%=      5-min Rain = 0
KCR1 161658Z 11002KT 24/16 A3003 RMK A01 T02360162  RH  063%=      5-min Rain = 0
KCR1 161659Z 06002KT 24/16 A3003 RMK A01 T02360162  RH  064%=      5-min Rain = 0
KCR1 161700Z 09004KT 24/16 A3003 RMK A01 T02350164  RH  064%=      5-min Rain = 0
KCR1 161701Z 09004KT 23/17 A3003 RMK A01 T02340165  RH  065%=      5-min Rain = 0
KCR1 161702Z 08003KT 23/16 A3003 RMK A01 T02340163  RH  064%=      5-min Rain = 0
KCR1 161703Z 12004KT 23/16 A3003 RMK A01 T02340164  RH  065%=      5-min Rain = 0
KCR1 161704Z 12004KT 24/17 A3003 RMK A01 T02350166  RH  065%=      5-min Rain = 0
KCR1 161705Z 12005KT 24/16 A3003 RMK A01 T02360164  RH  064%=      5-min Rain = 0
KCR1 161706Z 12005KT 24/16 A3003 RMK A01 T02350163  RH  064%=      5-min Rain = 0
KCR1 161707Z 13003KT 24/16 A3003 RMK A01 T02350164  RH  065%=      5-min Rain = 0
KCR1 161708Z 14003KT 24/16 A3003 RMK A01 T02350161  RH  063%=      5-min Rain = 0
KCR1 161709Z 11001KT 24/16 A3003 RMK A01 T02350163  RH  064%=      5-min Rain = 0
KCR1 161710Z 14001KT 24/16 A3003 RMK A01 T02350163  RH  064%=      5-min Rain = 0
KCR1 161711Z 16001KT 24/16 A3003 RMK A01 T02360159  RH  062%=      5-min Rain = 0
KCR1 161712Z 15002KT 24/16 A3003 RMK A01 T02360159  RH  062%=      5-min Rain = 0
KCR1 161713Z 12002KT 24/16 A3003 RMK A01 T02360161  RH  063%=      5-min Rain = 0
KCR1 161714Z 14001KT 24/16 A3003 RMK A01 T02370159  RH  062%=      5-min Rain = 0
KCR1 161715Z 19000KT 24/16 A3003 RMK A01 T02380159  RH  061%=      5-min Rain = 0
KCR1 161716Z 21002KT 24/16 A3003 RMK A01 T02390163  RH  062%=      5-min Rain = 0
KCR1 161717Z 21003KT 24/16 A3003 RMK A01 T02400164  RH  062%=      5-min Rain = 0
KCR1 161718Z 23002KT 24/17 A3003 RMK A01 T02420166  RH  062%=      5-min Rain = 0
KCR1 161719Z 27004KT 24/16 A3003 RMK A01 T02420163  RH  061%=      5-min Rain = 0
KCR1 161720Z 26004KT 24/16 A3003 RMK A01 T02410162  RH  061%=      5-min Rain = 0
KCR1 161721Z 23003KT 24/16 A3003 RMK A01 T02390159  RH  061%=      5-min Rain = 0
KCR1 161722Z 21003KT 24/16 A3003 RMK A01 T02380162  RH  062%=      5-min Rain = 0
KCR1 161723Z 25003KT 24/16 A3003 RMK A01 T02380162  RH  063%=      5-min Rain = 0
KCR1 161724Z 32006KT 24/17 A3004 RMK A01 T02380167  RH  064%=      5-min Rain = 0
KCR1 161725Z 32006KT 24/16 A3004 RMK A01 T02390164  RH  063%=      5-min Rain = 0
KCR1 161726Z 33007KT 24/17 A3003 RMK A01 T02390169  RH  065%=      5-min Rain = 0
KCR1 161727Z 32008KT 24/17 A3003 RMK A01 T02390167  RH  064%=      5-min Rain = 0
KCR1 161728Z 34008KT 24/17 A3003 RMK A01 T02380165  RH  063%=      5-min Rain = 0
KCR1 161729Z 34008KT 24/17 A3003 RMK A01 T02370166  RH  064%=      5-min Rain = 0
KCR1 161730Z 34008KT 24/17 A3003 RMK A01 T02360167  RH  065%=      5-min Rain = 0
KCR1 161731Z 35008KT 24/17 A3002 RMK A01 T02350171  RH  067%=      5-min Rain = 0
KCR1 161732Z 00008KT 23/17 A3002 RMK A01 T02330174  RH  069%=      5-min Rain = 0
KCR1 161733Z 00007KT 23/18 A3001 RMK A01 T02300176  RH  071%=      5-min Rain = 0
KCR1 161734Z 02009KT 23/18 A3002 RMK A01 T02270177  RH  073%=      5-min Rain = 0
KCR1 161735Z 01011KT 23/18 A3002 RMK A01 T02260179  RH  075%=      5-min Rain = 0
KCR1 161736Z 01012KT 23/18 A3002 RMK A01 T02250179  RH  075%=      5-min Rain = 0
KCR1 161737Z 01012KT 23/18 A3003 RMK A01 T02250180  RH  076%=      5-min Rain = 0
KCR1 161738Z 00013KT 23/18 A3003 RMK A01 T02250181  RH  076%=      5-min Rain = 0
KCR1 161739Z 01012KT 23/18 A3003 RMK A01 T02250180  RH  076%=      5-min Rain = 0
KCR1 161740Z 00014KT 22/18 A3003 RMK A01 T02240179  RH  075%=      5-min Rain = 0
KCR1 161741Z 01010KT 22/18 A3002 RMK A01 T02230179  RH  076%=      5-min Rain = 0
KCR1 161742Z 01012KT 22/18 A3002 RMK A01 T02230180  RH  076%=      5-min Rain = 0
KCR1 161743Z 01012KT 22/18 A3002 RMK A01 T02240175  RH  074%=      5-min Rain = 0
KCR1 161744Z 01010KT 22/18 A3001 RMK A01 T02240177  RH  074%=      5-min Rain = 0
KCR1 161745Z 02009KT 23/17 A3001 RMK A01 T02250174  RH  073%=      5-min Rain = 0
KCR1 161746Z 02010KT 23/17 A3001 RMK A01 T02250174  RH  073%=      5-min Rain = 0
KCR1 161747Z 02010KT 23/18 A3001 RMK A01 T02260175  RH  073%=      5-min Rain = 0
KCR1 161748Z 03011KT 23/18 A3001 RMK A01 T02270177  RH  073%=      5-min Rain = 0
KCR1 161749Z 02011KT 23/18 A3001 RMK A01 T02280177  RH  073%=      5-min Rain = 0
KCR1 161750Z 02011KT 23/17 A3001 RMK A01 T02290174  RH  071%=      5-min Rain = 0
KCR1 161751Z 01010KT 23/17 A3001 RMK A01 T02280174  RH  072%=      5-min Rain = 0
KCR1 161752Z 01009KT 23/17 A3001 RMK A01 T02280170  RH  070%=      5-min Rain = 0
KCR1 161753Z 02008KT 23/17 A3001 RMK A01 T02280169  RH  069%=      5-min Rain = 0
KCR1 161754Z 03008KT 23/17 A3001 RMK A01 T02290170  RH  069%=      5-min Rain = 0
KCR1 161755Z 04009KT 23/17 A3001 RMK A01 T02300167  RH  067%=      5-min Rain = 0
KCR1 161756Z 04008KT 23/17 A3001 RMK A01 T02300167  RH  068%=      5-min Rain = 0
KCR1 161757Z 03007KT 23/17 A30 RMK A01 T02300170  RH  069%=      5-min Rain = 0
KCR1 161758Z 03008KT 23/17 A30 RMK A01 T02300169  RH  069%=      5-min Rain = 0
KCR1 161759Z 04008KT 23/17 A30 RMK A01 T02300169  RH  068%=      5-min Rain = 0
KCR1 161800Z 05008KT 23/17 A30 RMK A01 T02300170  RH  069%=      5-min Rain = 0
KCR1 161801Z 05006KT 23/17 A30 RMK A01 T02310169  RH  068%=      5-min Rain = 0
KCR1 161802Z 05005KT 23/17 A30 RMK A01 T02310171  RH  069%=      5-min Rain = 0
KCR1 161803Z 06005KT 23/17 A30 RMK A01 T02310172  RH  069%=      5-min Rain = 0
KCR1 161804Z 05007KT 23/17 A30 RMK A01 T02320167  RH  067%=      5-min Rain = 0
KCR1 161805Z 05006KT 23/17 A30 RMK A01 T02320166  RH  066%=      5-min Rain = 0
KCR1 161806Z 06006KT 23/17 A30 RMK A01 T02320165  RH  066%=      5-min Rain = 0
KCR1 161807Z 07005KT 23/17 A30 RMK A01 T02320166  RH  066%=      5-min Rain = 0
KCR1 161808Z 07005KT 23/17 A30 RMK A01 T02320168  RH  067%=      5-min Rain = 0
KCR1 161809Z 07004KT 23/17 A30 RMK A01 T02330166  RH  066%=      5-min Rain = 0
KCR1 161810Z 08003KT 23/16 A30 RMK A01 T02320164  RH  065%=      5-min Rain = 0
KCR1 161811Z 08003KT 23/16 A30 RMK A01 T02310163  RH  065%=      5-min Rain = 0
KCR1 161812Z 09003KT 23/16 A30 RMK A01 T02310161  RH  064%=      5-min Rain = 0
KCR1 161813Z 10003KT 23/16 A30 RMK A01 T02330164  RH  065%=      5-min Rain = 0
KCR1 161814Z 11004KT 24/17 A2999 RMK A01 T02360166  RH  065%=      5-min Rain = 0
KCR1 161815Z 11004KT 24/17 A2999 RMK A01 T02390165  RH  063%=      5-min Rain = 0
KCR1 161816Z 12003KT 24/16 A2999 RMK A01 T02390162  RH  062%=      5-min Rain = 0
KCR1 161817Z 12005KT 24/17 A2998 RMK A01 T02390168  RH  065%=      5-min Rain = 0
KCR1 161818Z 13007KT 24/17 A2998 RMK A01 T02390169  RH  065%=      5-min Rain = 0
KCR1 161819Z 15006KT 24/17 A2998 RMK A01 T02420170  RH  064%=      5-min Rain = 0
KCR1 161820Z 14006KT 25/17 A2998 RMK A01 T02460170  RH  062%=      5-min Rain = 0
KCR1 161821Z 14006KT 25/17 A2998 RMK A01 T02470169  RH  062%=      5-min Rain = 0
KCR1 161822Z 16007KT 25/17 A2998 RMK A01 T02460169  RH  062%=      5-min Rain = 0
KCR1 161823Z 16004KT 24/17 A2998 RMK A01 T02440165  RH  062%=      5-min Rain = 0
KCR1 161824Z 14007KT 24/17 A2998 RMK A01 T02430170  RH  063%=      5-min Rain = 0
KCR1 161825Z 14004KT 25/17 A2998 RMK A01 T02450168  RH  062%=      5-min Rain = 0
KCR1 161826Z 15004KT 25/17 A2999 RMK A01 T02450166  RH  061%=      5-min Rain = 0
KCR1 161827Z 18003KT 24/16 A2998 RMK A01 T02440164  RH  061%=      5-min Rain = 0
KCR1 161828Z 17004KT 24/17 A2998 RMK A01 T02440167  RH  062%=      5-min Rain = 0
KCR1 161829Z 19005KT 24/17 A2998 RMK A01 T02430167  RH  062%=      5-min Rain = 0
KCR1 161830Z 17006KT 24/16 A2998 RMK A01 T02430160  RH  060%=      5-min Rain = 0
KCR1 161831Z 17006KT 24/16 A2998 RMK A01 T02420159  RH  060%=      5-min Rain = 0
KCR1 161832Z 19007KT 24/17 A2998 RMK A01 T02410166  RH  063%=      5-min Rain = 0
KCR1 161833Z 18006KT 24/16 A2998 RMK A01 T02420161  RH  061%=      5-min Rain = 0
KCR1 161834Z 17004KT 24/16 A2998 RMK A01 T02420160  RH  060%=      5-min Rain = 0
KCR1 161835Z 18002KT 24/16 A2998 RMK A01 T02420157  RH  059%=      5-min Rain = 0
KCR1 161836Z 36001KT 24/16 A2999 RMK A01 T02420160  RH  060%=      5-min Rain = 0
KCR1 161837Z 00004KT 24/16 A2999 RMK A01 T02430160  RH  060%=      5-min Rain = 0
KCR1 161838Z 00005KT 25/17 A30 RMK A01 T02450165  RH  061%=      5-min Rain = 0
KCR1 161839Z 00008KT 25/17 A30 RMK A01 T02460169  RH  062%=      5-min Rain = 0
KCR1 161840Z 00009KT 25/17 A30 RMK A01 T02490171  RH  062%=      5-min Rain = 0
KCR1 161841Z 02009KT 25/17 A30 RMK A01 T02510173  RH  062%=      5-min Rain = 0
KCR1 161842Z 03006KT 25/18 A30 RMK A01 T02520175  RH  062%=      5-min Rain = 0
KCR1 161843Z 05005KT 26/17 A30 RMK A01 T02550172  RH  060%=      5-min Rain = 0
KCR1 161844Z 04004KT 26/17 A30 RMK A01 T02550170  RH  059%=      5-min Rain = 0
KCR1 161845Z 02008KT 26/18 A30 RMK A01 T02550178  RH  062%=      5-min Rain = 0
KCR1 161846Z 01008KT 26/18 A30 RMK A01 T02560176  RH  061%=      5-min Rain = 0
KCR1 161847Z 01010KT 26/17 A30 RMK A01 T02550173  RH  060%=      5-min Rain = 0
KCR1 161848Z 00008KT 25/18 A30 RMK A01 T02540176  RH  062%=      5-min Rain = 0
KCR1 161849Z 01006KT 25/18 A2999 RMK A01 T02530177  RH  063%=      5-min Rain = 0
KCR1 161850Z 05006KT 26/18 A2999 RMK A01 T02550176  RH  062%=      5-min Rain = 0
KCR1 161851Z 03006KT 26/18 A2999 RMK A01 T02570180  RH  062%=      5-min Rain = 0
KCR1 161852Z 03009KT 26/18 A2999 RMK A01 T02600180  RH  061%=      5-min Rain = 0
KCR1 161853Z 02008KT 26/18 A2999 RMK A01 T02610177  RH  060%=      5-min Rain = 0
KCR1 161854Z 01010KT 26/18 A2999 RMK A01 T02610178  RH  060%=      5-min Rain = 0
KCR1 161855Z 02008KT 26/18 A2999 RMK A01 T02600183  RH  063%=      5-min Rain = 0
KCR1 161856Z 01008KT 26/18 A2999 RMK A01 T02620180  RH  061%=      5-min Rain = 0
KCR1 161857Z 02008KT 26/18 A2999 RMK A01 T02640180  RH  060%=      5-min Rain = 0
KCR1 161858Z 01010KT 26/18 A2999 RMK A01 T02640180  RH  060%=      5-min Rain = 0
KCR1 161859Z 03007KT 26/18 A2999 RMK A01 T02600177  RH  060%=      5-min Rain = 0
KCR1 161900Z 04009KT 26/17 A2999 RMK A01 T02580173  RH  059%=      5-min Rain = 0
KCR1 161901Z 04009G14KT 26/17 A2999 RMK A01 T02580174  RH  060%=      5-min Rain = 0
KCR1 161902Z 03012KT 26/18 A2999 RMK A01 T02590179  RH  061%=      5-min Rain = 0
KCR1 161903Z 03009KT 26/18 A2999 RMK A01 T02590182  RH  062%=      5-min Rain = 0
KCR1 161904Z 02010KT 26/18 A2999 RMK A01 T02590181  RH  062%=      5-min Rain = 0
KCR1 161905Z 01011KT 26/18 A2999 RMK A01 T02580182  RH  063%=      5-min Rain = 0
KCR1 161906Z 00010KT 26/18 A2999 RMK A01 T02580179  RH  061%=      5-min Rain = 0
KCR1 161907Z 02007KT 26/18 A2999 RMK A01 T02560177  RH  061%=      5-min Rain = 0
KCR1 161908Z 03011KT 26/19 A2999 RMK A01 T02550186  RH  065%=      5-min Rain = 0
KCR1 161909Z 03011KT 26/19 A2999 RMK A01 T02570186  RH  065%=      5-min Rain = 0
KCR1 161910Z 03010KT 26/19 A2999 RMK A01 T02590192  RH  067%=      5-min Rain = 0
KCR1 161911Z 04012KT 26/19 A2999 RMK A01 T02610186  RH  063%=      5-min Rain = 0
KCR1 161912Z 04010KT 26/18 A2999 RMK A01 T02590183  RH  063%=      5-min Rain = 0
KCR1 161913Z 02013KT 26/18 A2999 RMK A01 T02560180  RH  063%=      5-min Rain = 0
KCR1 161914Z 01011KT 25/18 A2999 RMK A01 T02540180  RH  063%=      5-min Rain = 0
KCR1 161915Z 03010KT 25/18 A2999 RMK A01 T02520177  RH  063%=      5-min Rain = 0
KCR1 161916Z 03011KT 25/18 A2999 RMK A01 T02520179  RH  064%=      5-min Rain = 0
KCR1 161917Z 04009KT 26/18 A2999 RMK A01 T02550177  RH  062%=      5-min Rain = 0
KCR1 161918Z 04007KT 26/18 A2999 RMK A01 T02550175  RH  061%=      5-min Rain = 0
KCR1 161919Z 04008KT 26/18 A2999 RMK A01 T02560180  RH  063%=      5-min Rain = 0
KCR1 161920Z 03008KT 26/18 A2999 RMK A01 T02590179  RH  061%=      5-min Rain = 0
KCR1 161921Z 02010KT 26/18 A2999 RMK A01 T02600178  RH  061%=      5-min Rain = 0
KCR1 161922Z 04011KT 26/18 A2999 RMK A01 T02600177  RH  060%=      5-min Rain = 0
KCR1 161923Z 03008KT 26/17 A2999 RMK A01 T02590170  RH  058%=      5-min Rain = 0
KCR1 161924Z 04009KT 26/18 A2999 RMK A01 T02570178  RH  062%=      5-min Rain = 0
KCR1 161925Z 04007KT 26/17 A2999 RMK A01 T02580169  RH  058%=      5-min Rain = 0
KCR1 161926Z 05008KT 26/17 A2999 RMK A01 T02560170  RH  059%=      5-min Rain = 0
KCR1 161927Z 08005KT 26/17 A2999 RMK A01 T02550166  RH  058%=      5-min Rain = 0
KCR1 161928Z 05007KT 25/17 A2998 RMK A01 T02540166  RH  058%=      5-min Rain = 0
KCR1 161929Z 04007KT 25/17 A2998 RMK A01 T02540168  RH  059%=      5-min Rain = 0
KCR1 161930Z 04008KT 26/17 A2999 RMK A01 T02560171  RH  059%=      5-min Rain = 0
KCR1 161931Z 04008KT 26/17 A2999 RMK A01 T02580165  RH  057%=      5-min Rain = 0
KCR1 161932Z 04010KT 26/17 A2999 RMK A01 T02580167  RH  057%=      5-min Rain = 0
KCR1 161933Z 02010KT 26/17 A2999 RMK A01 T02580167  RH  057%=      5-min Rain = 0
KCR1 161934Z 02010KT 26/17 A2998 RMK A01 T02600165  RH  056%=      5-min Rain = 0
KCR1 161935Z 03008KT 26/16 A2998 RMK A01 T02590164  RH  056%=      5-min Rain = 0
KCR1 161936Z 04008KT 26/17 A2998 RMK A01 T02600172  RH  058%=      5-min Rain = 0
KCR1 161937Z 05011KT 26/17 A2998 RMK A01 T02630168  RH  056%=      5-min Rain = 0
KCR1 161938Z 05010KT 26/17 A2998 RMK A01 T02630166  RH  055%=      5-min Rain = 0
KCR1 161939Z 05009KT 26/17 A2998 RMK A01 T02620169  RH  056%=      5-min Rain = 0
KCR1 161940Z 06007KT 26/17 A2998 RMK A01 T02640170  RH  056%=      5-min Rain = 0
KCR1 161941Z 06008KT 27/17 A2998 RMK A01 T02660169  RH  055%=      5-min Rain = 0
KCR1 161942Z 04009KT 27/17 A2998 RMK A01 T02670169  RH  055%=      5-min Rain = 0
KCR1 161943Z 04007KT 27/17 A2998 RMK A01 T02650170  RH  056%=      5-min Rain = 0
KCR1 161944Z 05009KT 27/16 A2998 RMK A01 T02650163  RH  054%=      5-min Rain = 0
KCR1 161945Z 03008KT 27/17 A2998 RMK A01 T02650167  RH  055%=      5-min Rain = 0
KCR1 161946Z 04009KT 27/17 A2998 RMK A01 T02650169  RH  055%=      5-min Rain = 0
KCR1 161947Z 05008KT 27/16 A2998 RMK A01 T02650164  RH  054%=      5-min Rain = 0
KCR1 161948Z 04012KT 26/17 A2998 RMK A01 T02640167  RH  055%=      5-min Rain = 0
KCR1 161949Z 05011KT 26/17 A2998 RMK A01 T02640165  RH  055%=      5-min Rain = 0
KCR1 161950Z 05010KT 26/17 A2998 RMK A01 T02630166  RH  055%=      5-min Rain = 0
KCR1 161951Z 04007KT 26/17 A2998 RMK A01 T02620169  RH  056%=      5-min Rain = 0
KCR1 161952Z 04008KT 26/17 A2997 RMK A01 T02640165  RH  055%=      5-min Rain = 0
KCR1 161953Z 06008KT 26/17 A2997 RMK A01 T02640168  RH  056%=      5-min Rain = 0
KCR1 161954Z 05010KT 27/17 A2997 RMK A01 T02650166  RH  054%=      5-min Rain = 0
KCR1 161955Z 06009KT 27/16 A2997 RMK A01 T02670164  RH  053%=      5-min Rain = 0
KCR1 161956Z 06009KT 27/16 A2997 RMK A01 T02670161  RH  052%=      5-min Rain = 0
KCR1 161957Z 05007KT 27/16 A2997 RMK A01 T02670162  RH  053%=      5-min Rain = 0
KCR1 161958Z 05006KT 27/17 A2997 RMK A01 T02670165  RH  053%=      5-min Rain = 0
KCR1 161959Z 05006KT 27/16 A2997 RMK A01 T02680163  RH  052%=      5-min Rain = 0
KCR1 162000Z 05006KT 27/17 A2997 RMK A01 T02680165  RH  053%=      5-min Rain = 0
KCR1 162001Z 05009KT 27/17 A2997 RMK A01 T02680166  RH  054%=      5-min Rain = 0
KCR1 162002Z 05010KT 27/16 A2997 RMK A01 T02700161  RH  051%=      5-min Rain = 0
KCR1 162003Z 05009KT 27/16 A2997 RMK A01 T02700156  RH  050%=      5-min Rain = 0
KCR1 162004Z 05009KT 27/15 A2997 RMK A01 T02670153  RH  049%=      5-min Rain = 0
KCR1 162005Z 06009KT 27/15 A2997 RMK A01 T02660153  RH  050%=      5-min Rain = 0
KCR1 162006Z 06008KT 27/16 A2997 RMK A01 T02660155  RH  051%=      5-min Rain = 0
KCR1 162007Z 05007KT 27/15 A2997 RMK A01 T02670153  RH  050%=      5-min Rain = 0
KCR1 162008Z 04007KT 27/15 A2997 RMK A01 T02670150  RH  049%=      5-min Rain = 0
KCR1 162009Z 03008KT 27/15 A2997 RMK A01 T02660152  RH  050%=      5-min Rain = 0
KCR1 162010Z 03008KT 27/15 A2997 RMK A01 T02670148  RH  048%=      5-min Rain = 0
KCR1 162011Z 03010KT 27/15 A2997 RMK A01 T02680152  RH  049%=      5-min Rain = 0
KCR1 162012Z 03009KT 27/15 A2996 RMK A01 T02690152  RH  049%=      5-min Rain = 0
KCR1 162013Z 03009KT 27/16 A2996 RMK A01 T02700156  RH  050%=      5-min Rain = 0
KCR1 162014Z 03007KT 27/16 A2996 RMK A01 T02700155  RH  049%=      5-min Rain = 0
KCR1 162015Z 03006KT 27/16 A2996 RMK A01 T02690156  RH  050%=      5-min Rain = 0
KCR1 162016Z 05007KT 27/16 A2996 RMK A01 T02700158  RH  050%=      5-min Rain = 0
KCR1 162017Z 05008KT 27/16 A2996 RMK A01 T02710156  RH  049%=      5-min Rain = 0
KCR1 162018Z 06006KT 27/16 A2996 RMK A01 T02730157  RH  049%=      5-min Rain = 0
KCR1 162019Z 04008KT 27/16 A2996 RMK A01 T02730156  RH  049%=      5-min Rain = 0
KCR1 162020Z 04007KT 27/16 A2996 RMK A01 T02720162  RH  051%=      5-min Rain = 0
KCR1 162021Z 07007KT 28/17 A2996 RMK A01 T02750165  RH  051%=      5-min Rain = 0
KCR1 162022Z 07008KT 28/16 A2996 RMK A01 T02780159  RH  048%=      5-min Rain = 0
KCR1 162023Z 08007KT 28/16 A2996 RMK A01 T02750157  RH  048%=      5-min Rain = 0
KCR1 162024Z 06004KT 27/16 A2996 RMK A01 T02730157  RH  049%=      5-min Rain = 0
KCR1 162025Z 07005KT 27/16 A2996 RMK A01 T02730158  RH  050%=      5-min Rain = 0
KCR1 162026Z 05009KT 27/16 A2996 RMK A01 T02730157  RH  049%=      5-min Rain = 0
KCR1 162027Z 06009KT 27/16 A2996 RMK A01 T02730157  RH  049%=      5-min Rain = 0
KCR1 162028Z 05011KT 27/16 A2996 RMK A01 T02730159  RH  050%=      5-min Rain = 0
KCR1 162029Z 06009KT 27/16 A2996 RMK A01 T02730157  RH  049%=      5-min Rain = 0
KCR1 162030Z 06008KT 27/16 A2996 RMK A01 T02730156  RH  049%=      5-min Rain = 0
KCR1 162031Z 06008KT 27/15 A2996 RMK A01 T02730154  RH  048%=      5-min Rain = 0
KCR1 162032Z 06005KT 27/16 A2996 RMK A01 T02720155  RH  049%=      5-min Rain = 0
KCR1 162033Z 06004KT 27/16 A2996 RMK A01 T02720156  RH  049%=      5-min Rain = 0
KCR1 162034Z 05008KT 27/16 A2996 RMK A01 T02730162  RH  051%=      5-min Rain = 0
KCR1 162035Z 07006KT 28/16 A2996 RMK A01 T02770156  RH  048%=      5-min Rain = 0
KCR1 162036Z 05005KT 28/16 A2996 RMK A01 T02780155  RH  047%=      5-min Rain = 0
KCR1 162037Z 05008KT 28/15 A2996 RMK A01 T02790153  RH  046%=      5-min Rain = 0
KCR1 162038Z 04005KT 28/15 A2996 RMK A01 T02790146  RH  044%=      5-min Rain = 0
KCR1 162039Z 05009KT 28/15 A2996 RMK A01 T02790152  RH  046%=      5-min Rain = 0
KCR1 162040Z 03008KT 28/15 A2996 RMK A01 T02800154  RH  046%=      5-min Rain = 0
KCR1 162041Z 05009KT 28/15 A2996 RMK A01 T02800152  RH  046%=      5-min Rain = 0
KCR1 162042Z 05007KT 28/15 A2996 RMK A01 T02780149  RH  045%=      5-min Rain = 0
KCR1 162043Z 06006KT 28/15 A2996 RMK A01 T02770148  RH  045%=      5-min Rain = 0
KCR1 162044Z 05006KT 28/15 A2996 RMK A01 T02770150  RH  046%=      5-min Rain = 0
KCR1 162045Z 07005KT 28/15 A2996 RMK A01 T02780147  RH  045%=      5-min Rain = 0
KCR1 162046Z 05007KT 28/15 A2996 RMK A01 T02800153  RH  046%=      5-min Rain = 0
KCR1 162047Z 06006KT 28/15 A2996 RMK A01 T02820151  RH  045%=      5-min Rain = 0
KCR1 162048Z 06006KT 28/15 A2996 RMK A01 T02810151  RH  045%=      5-min Rain = 0
KCR1 162049Z 05008KT 28/16 A2996 RMK A01 T02820156  RH  046%=      5-min Rain = 0
KCR1 162050Z 05006KT 28/15 A2996 RMK A01 T02830151  RH  045%=      5-min Rain = 0
KCR1 162051Z 05005KT 28/15 A2995 RMK A01 T02830150  RH  044%=      5-min Rain = 0
KCR1 162052Z 07004KT 28/15 A2995 RMK A01 T02830153  RH  045%=      5-min Rain = 0
KCR1 162053Z 07006KT 28/15 A2995 RMK A01 T02820151  RH  045%=      5-min Rain = 0
KCR1 162054Z 06005KT 28/15 A2995 RMK A01 T02820150  RH  044%=      5-min Rain = 0
KCR1 162055Z 09008KT 28/15 A2995 RMK A01 T02820152  RH  045%=      5-min Rain = 0
KCR1 162056Z 10006KT 28/15 A2995 RMK A01 T02820153  RH  045%=      5-min Rain = 0
KCR1 162057Z 07006KT 28/15 A2995 RMK A01 T02820153  RH  045%=      5-min Rain = 0
KCR1 162058Z 07006KT 28/15 A2995 RMK A01 T02820152  RH  045%=      5-min Rain = 0
KCR1 162059Z 08005KT 28/15 A2995 RMK A01 T02820154  RH  046%=      5-min Rain = 0
KCR1 162100Z 07007KT 28/15 A2995 RMK A01 T02820154  RH  046%=      5-min Rain = 0
KCR1 162101Z 09006KT 28/16 A2995 RMK A01 T02830156  RH  046%=      5-min Rain = 0
KCR1 162102Z 07007KT 28/16 A2995 RMK A01 T02840156  RH  046%=      5-min Rain = 0
KCR1 162103Z 07007KT 29/16 A2995 RMK A01 T02860158  RH  046%=      5-min Rain = 0
KCR1 162104Z 07008KT 29/16 A2995 RMK A01 T02880156  RH  045%=      5-min Rain = 0
KCR1 162105Z 06007KT 29/16 A2994 RMK A01 T02880157  RH  045%=      5-min Rain = 0
KCR1 162106Z 06006KT 29/16 A2994 RMK A01 T02880157  RH  045%=      5-min Rain = 0
KCR1 162107Z 06006KT 29/16 A2994 RMK A01 T02870156  RH  045%=      5-min Rain = 0
KCR1 162108Z 08007KT 29/16 A2994 RMK A01 T02860156  RH  045%=      5-min Rain = 0
KCR1 162109Z 08007KT 29/16 A2994 RMK A01 T02860155  RH  045%=      5-min Rain = 0
KCR1 162110Z 09006KT 29/15 A2994 RMK A01 T02870149  RH  043%=      5-min Rain = 0
KCR1 162111Z 06006KT 29/15 A2994 RMK A01 T02860150  RH  044%=      5-min Rain = 0
KCR1 162112Z 05004KT 29/15 A2994 RMK A01 T02860152  RH  044%=      5-min Rain = 0
KCR1 162113Z 05007KT 29/16 A2994 RMK A01 T02860156  RH  045%=      5-min Rain = 0
KCR1 162114Z 07007KT 29/16 A2994 RMK A01 T02870159  RH  046%=      5-min Rain = 0
KCR1 162115Z 07007KT 29/16 A2994 RMK A01 T02900158  RH  045%=      5-min Rain = 0
KCR1 162116Z 08007KT 29/16 A2994 RMK A01 T02910156  RH  044%=      5-min Rain = 0
KCR1 162117Z 07006KT 29/15 A2994 RMK A01 T02900153  RH  043%=      5-min Rain = 0
KCR1 162118Z 06007KT 29/15 A2994 RMK A01 T02890154  RH  044%=      5-min Rain = 0
KCR1 162119Z 06006KT 29/16 A2994 RMK A01 T02880155  RH  044%=      5-min Rain = 0
KCR1 162120Z 06005KT 29/15 A2993 RMK A01 T02900151  RH  043%=      5-min Rain = 0
KCR1 162121Z 10009KT 29/16 A2993 RMK A01 T02910155  RH  043%=      5-min Rain = 0
KCR1 162122Z 09008KT 29/15 A2993 RMK A01 T02930152  RH  042%=      5-min Rain = 0
KCR1 162123Z 08007KT 29/16 A2994 RMK A01 T02930160  RH  044%=      5-min Rain = 0
KCR1 162124Z 09008KT 29/15 A2994 RMK A01 T02940154  RH  043%=      5-min Rain = 0
KCR1 162125Z 08005KT 29/15 A2994 RMK A01 T02920154  RH  043%=      5-min Rain = 0
KCR1 162126Z 06004KT 29/16 A2994 RMK A01 T02920155  RH  043%=      5-min Rain = 0
KCR1 162127Z 08005KT 29/15 A2994 RMK A01 T02910154  RH  043%=      5-min Rain = 0
KCR1 162128Z 07006KT 29/15 A2994 RMK A01 T02900151  RH  043%=      5-min Rain = 0
KCR1 162129Z 08009KT 29/15 A2994 RMK A01 T02920152  RH  043%=      5-min Rain = 0
KCR1 162130Z 06007KT 29/15 A2993 RMK A01 T02930151  RH  042%=      5-min Rain = 0
KCR1 162131Z 07007KT 29/15 A2994 RMK A01 T02930154  RH  043%=      5-min Rain = 0
KCR1 162132Z 04007KT 29/15 A2993 RMK A01 T02940151  RH  042%=      5-min Rain = 0
KCR1 162133Z 03010KT 30/15 A2994 RMK A01 T02950151  RH  042%=      5-min Rain = 0
KCR1 162134Z 04008KT 29/15 A2994 RMK A01 T02930148  RH  041%=      5-min Rain = 0
KCR1 162135Z 06009KT 29/15 A2994 RMK A01 T02920150  RH  042%=      5-min Rain = 0
KCR1 162136Z 06006KT 29/15 A2994 RMK A01 T02920148  RH  042%=      5-min Rain = 0
KCR1 162137Z 05004KT 29/15 A2994 RMK A01 T02910147  RH  042%=      5-min Rain = 0
KCR1 162138Z 03004KT 29/15 A2994 RMK A01 T02910151  RH  043%=      5-min Rain = 0
KCR1 162139Z 03005KT 29/15 A2994 RMK A01 T02920150  RH  042%=      5-min Rain = 0
KCR1 162140Z 04006KT 29/15 A2994 RMK A01 T02930151  RH  042%=      5-min Rain = 0
KCR1 162141Z 04008KT 30/16 A2994 RMK A01 T02950158  RH  043%=      5-min Rain = 0
KCR1 162142Z 04006KT 30/15 A2994 RMK A01 T02980149  RH  040%=      5-min Rain = 0
KCR1 162143Z 02004KT 30/15 A2994 RMK A01 T02980151  RH  041%=      5-min Rain = 0
KCR1 162144Z 03005KT 30/15 A2993 RMK A01 T02970151  RH  041%=      5-min Rain = 0
KCR1 162145Z 07006G11KT 30/16 A2993 RMK A01 T02970155  RH  042%=      5-min Rain = 0
KCR1 162146Z 06006KT 30/16 A2993 RMK A01 T02980158  RH  043%=      5-min Rain = 0
KCR1 162147Z 07008KT 30/15 A2993 RMK A01 T03000154  RH  041%=      5-min Rain = 0
KCR1 162148Z 05006KT 30/15 A2993 RMK A01 T02980152  RH  041%=      5-min Rain = 0
KCR1 162149Z 04008KT 30/16 A2993 RMK A01 T02960158  RH  043%=      5-min Rain = 0
KCR1 162150Z 05006KT 30/15 A2993 RMK A01 T02960152  RH  041%=      5-min Rain = 0
KCR1 162151Z 05006KT 30/16 A2993 RMK A01 T02950156  RH  043%=      5-min Rain = 0
KCR1 162152Z 08007KT 30/15 A2993 RMK A01 T02950153  RH  042%=      5-min Rain = 0
KCR1 162153Z 10005KT 30/15 A2993 RMK A01 T02960150  RH  041%=      5-min Rain = 0
KCR1 162154Z 08005KT 30/15 A2993 RMK A01 T02950147  RH  041%=      5-min Rain = 0
KCR1 162155Z 08004KT 29/15 A2993 RMK A01 T02940151  RH  042%=      5-min Rain = 0
KCR1 162156Z 10005KT 29/15 A2993 RMK A01 T02940148  RH  041%=      5-min Rain = 0
KCR1 162157Z 11003KT 30/15 A2993 RMK A01 T02950147  RH  041%=      5-min Rain = 0
KCR1 162158Z 10005KT 30/15 A2993 RMK A01 T02960146  RH  040%=      5-min Rain = 0
KCR1 162159Z 10006KT 30/15 A2993 RMK A01 T02970146  RH  040%=      5-min Rain = 0
KCR1 162200Z 08006KT 30/15 A2993 RMK A01 T02980148  RH  040%=      5-min Rain = 0
KCR1 162201Z 05009KT 30/16 A2993 RMK A01 T02980155  RH  042%=      5-min Rain = 0
KCR1 162202Z 05008KT 30/15 A2993 RMK A01 T02990152  RH  041%=      5-min Rain = 0
KCR1 162203Z 05006KT 30/15 A2993 RMK A01 T02990154  RH  041%=      5-min Rain = 0
KCR1 162204Z 07006KT 30/15 A2993 RMK A01 T02990153  RH  041%=      5-min Rain = 0
KCR1 162205Z 07005KT 30/15 A2993 RMK A01 T03000148  RH  040%=      5-min Rain = 0
KCR1 162206Z 05006KT 30/15 A2993 RMK A01 T03000150  RH  040%=      5-min Rain = 0
KCR1 162207Z 04007KT 30/15 A2993 RMK A01 T02990150  RH  041%=      5-min Rain = 0
KCR1 162208Z 06006KT 30/15 A2993 RMK A01 T02970153  RH  041%=      5-min Rain = 0
KCR1 162209Z 07005KT 30/15 A2993 RMK A01 T02970153  RH  041%=      5-min Rain = 0
KCR1 162210Z 07005KT 30/15 A2993 RMK A01 T02970154  RH  042%=      5-min Rain = 0
KCR1 162211Z 07007KT 30/16 A2993 RMK A01 T02990156  RH  042%=      5-min Rain = 0
KCR1 162212Z 06007KT 30/15 A2993 RMK A01 T03000153  RH  041%=      5-min Rain = 0
KCR1 162213Z 06005KT 30/16 A2993 RMK A01 T02990155  RH  042%=      5-min Rain = 0
KCR1 162214Z 08006KT 30/16 A2993 RMK A01 T03000159  RH  043%=      5-min Rain = 0
KCR1 162215Z 07005KT 30/15 A2993 RMK A01 T03020151  RH  040%=      5-min Rain = 0
KCR1 162216Z 07005KT 30/15 A2993 RMK A01 T03010150  RH  040%=      5-min Rain = 0
KCR1 162217Z 09005KT 30/15 A2993 RMK A01 T02990149  RH  040%=      5-min Rain = 0
KCR1 162218Z 09006KT 30/15 A2993 RMK A01 T02980151  RH  041%=      5-min Rain = 0
KCR1 162219Z 06006KT 30/15 A2993 RMK A01 T02980149  RH  040%=      5-min Rain = 0
KCR1 162220Z 07007KT 30/15 A2993 RMK A01 T02970150  RH  041%=      5-min Rain = 0
KCR1 162221Z 07005KT 30/15 A2993 RMK A01 T02980148  RH  040%=      5-min Rain = 0
KCR1 162222Z 05007KT 30/15 A2993 RMK A01 T02980150  RH  041%=      5-min Rain = 0
KCR1 162223Z 04007KT 30/15 A2993 RMK A01 T02980154  RH  042%=      5-min Rain = 0
KCR1 162224Z 06008KT 30/15 A2993 RMK A01 T03000154  RH  041%=      5-min Rain = 0
KCR1 162225Z 06006KT 30/15 A2993 RMK A01 T03010147  RH  039%=      5-min Rain = 0
KCR1 162226Z 06007KT 30/15 A2993 RMK A01 T03000151  RH  040%=      5-min Rain = 0
KCR1 162227Z 05006KT 30/15 A2993 RMK A01 T03020149  RH  039%=      5-min Rain = 0
KCR1 162228Z 04005KT 30/15 A2993 RMK A01 T03030151  RH  040%=      5-min Rain = 0
KCR1 162229Z 05009KT 30/15 A2993 RMK A01 T03040150  RH  039%=      5-min Rain = 0
KCR1 162230Z 06006KT 31/15 A2993 RMK A01 T03050150  RH  039%=      5-min Rain = 0
KCR1 162231Z 06007KT 31/15 A2993 RMK A01 T03060145  RH  038%=      5-min Rain = 0
KCR1 162232Z 05006KT 30/15 A2993 RMK A01 T03030146  RH  038%=      5-min Rain = 0
KCR1 162233Z 05007KT 30/15 A2993 RMK A01 T03030146  RH  038%=      5-min Rain = 0
KCR1 162234Z 05006KT 30/14 A2993 RMK A01 T03040143  RH  037%=      5-min Rain = 0
KCR1 162235Z 05005KT 30/14 A2993 RMK A01 T03030140  RH  037%=      5-min Rain = 0
KCR1 162236Z 06005KT 30/14 A2993 RMK A01 T03020143  RH  038%=      5-min Rain = 0
KCR1 162237Z 08006KT 30/14 A2993 RMK A01 T03030141  RH  037%=      5-min Rain = 0
KCR1 162238Z 07005KT 30/14 A2993 RMK A01 T03040140  RH  037%=      5-min Rain = 0
KCR1 162239Z 07005KT 30/14 A2993 RMK A01 T03040141  RH  037%=      5-min Rain = 0
KCR1 162240Z 06006KT 30/14 A2993 RMK A01 T03040141  RH  037%=      5-min Rain = 0
KCR1 162241Z 05007KT 30/14 A2993 RMK A01 T03020138  RH  037%=      5-min Rain = 0
KCR1 162242Z 05005KT 30/14 A2993 RMK A01 T03010139  RH  037%=      5-min Rain = 0
KCR1 162243Z 05003KT 30/14 A2993 RMK A01 T03010142  RH  038%=      5-min Rain = 0
KCR1 162244Z 04003KT 30/14 A2993 RMK A01 T03020143  RH  038%=      5-min Rain = 0
KCR1 162245Z 10004KT 30/15 A2993 RMK A01 T03040145  RH  038%=      5-min Rain = 0
KCR1 162246Z 10006KT 30/15 A2993 RMK A01 T03040150  RH  039%=      5-min Rain = 0
KCR1 162247Z 09008KT 30/15 A2993 RMK A01 T03040152  RH  040%=      5-min Rain = 0
KCR1 162248Z 06006KT 30/15 A2993 RMK A01 T03040148  RH  039%=      5-min Rain = 0
KCR1 162249Z 09007KT 30/15 A2993 RMK A01 T03020154  RH  041%=      5-min Rain = 0
KCR1 162250Z 08009KT 30/16 A2993 RMK A01 T03030156  RH  041%=      5-min Rain = 0
KCR1 162251Z 07006KT 30/15 A2993 RMK A01 T03040151  RH  039%=      5-min Rain = 0
KCR1 162252Z 10007KT 30/15 A2993 RMK A01 T03020153  RH  040%=      5-min Rain = 0
KCR1 162253Z 11008KT 30/15 A2992 RMK A01 T03020153  RH  040%=      5-min Rain = 0
KCR1 162254Z 11006KT 30/15 A2992 RMK A01 T03020154  RH  041%=      5-min Rain = 0
KCR1 162255Z 11008KT 30/15 A2992 RMK A01 T03020153  RH  041%=      5-min Rain = 0
KCR1 162256Z 10008KT 30/15 A2992 RMK A01 T03020152  RH  040%=      5-min Rain = 0
KCR1 162257Z 11007KT 30/16 A2992 RMK A01 T03020157  RH  041%=      5-min Rain = 0
KCR1 162258Z 10008KT 30/16 A2992 RMK A01 T03040155  RH  040%=      5-min Rain = 0
KCR1 162259Z 10005KT 30/15 A2992 RMK A01 T03030151  RH  040%=      5-min Rain = 0
KCR1 162300Z 10007KT 30/15 A2992 RMK A01 T03010152  RH  040%=      5-min Rain = 0
KCR1 162301Z 10010KT 30/15 A2992 RMK A01 T03010153  RH  041%=      5-min Rain = 0
KCR1 162302Z 11006KT 30/15 A2992 RMK A01 T03000150  RH  040%=      5-min Rain = 0
KCR1 162303Z 11006KT 30/15 A2992 RMK A01 T02980152  RH  041%=      5-min Rain = 0
KCR1 162304Z 09005KT 30/15 A2992 RMK A01 T02980152  RH  041%=      5-min Rain = 0
KCR1 162305Z 08008KT 30/15 A2992 RMK A01 T02990154  RH  041%=      5-min Rain = 0
KCR1 162306Z 08007KT 30/15 A2992 RMK A01 T03000150  RH  040%=      5-min Rain = 0
KCR1 162307Z 06008KT 30/15 A2992 RMK A01 T03000152  RH  041%=      5-min Rain = 0
KCR1 162308Z 07006KT 30/15 A2992 RMK A01 T03000153  RH  041%=      5-min Rain = 0
KCR1 162309Z 06006KT 30/15 A2992 RMK A01 T03010153  RH  041%=      5-min Rain = 0
KCR1 162310Z 06006KT 30/15 A2992 RMK A01 T03020150  RH  040%=      5-min Rain = 0
KCR1 162311Z 07008KT 30/15 A2992 RMK A01 T03010149  RH  040%=      5-min Rain = 0
KCR1 162312Z 07005KT 30/15 A2992 RMK A01 T03000151  RH  040%=      5-min Rain = 0
KCR1 162313Z 05002KT 30/15 A2992 RMK A01 T02990152  RH  041%=      5-min Rain = 0
KCR1 162314Z 08002KT 30/16 A2992 RMK A01 T02990157  RH  042%=      5-min Rain = 0
KCR1 162315Z 09006KT 30/16 A2992 RMK A01 T03010155  RH  041%=      5-min Rain = 0
KCR1 162316Z 09009KT 30/15 A2992 RMK A01 T03020152  RH  040%=      5-min Rain = 0
KCR1 162317Z 09009KT 30/15 A2992 RMK A01 T03030148  RH  039%=      5-min Rain = 0
KCR1 162318Z 09007KT 30/15 A2992 RMK A01 T03020148  RH  039%=      5-min Rain = 0
KCR1 162319Z 10008KT 30/15 A2992 RMK A01 T03020150  RH  040%=      5-min Rain = 0
KCR1 162320Z 09007KT 30/15 A2992 RMK A01 T03020148  RH  039%=      5-min Rain = 0
KCR1 162321Z 10007KT 30/15 A2992 RMK A01 T03020149  RH  039%=      5-min Rain = 0
KCR1 162322Z 08008KT 30/15 A2992 RMK A01 T03020149  RH  039%=      5-min Rain = 0
KCR1 162323Z 08005KT 30/15 A2992 RMK A01 T03020146  RH  039%=      5-min Rain = 0
KCR1 162324Z 09009KT 30/15 A2992 RMK A01 T03020149  RH  039%=      5-min Rain = 0
KCR1 162325Z 10008KT 30/15 A2992 RMK A01 T03010151  RH  040%=      5-min Rain = 0
KCR1 162326Z 09007KT 30/15 A2992 RMK A01 T03010149  RH  040%=      5-min Rain = 0
KCR1 162327Z 10007KT 30/15 A2992 RMK A01 T03010150  RH  040%=      5-min Rain = 0
KCR1 162328Z 10005KT 30/15 A2992 RMK A01 T03010148  RH  039%=      5-min Rain = 0
KCR1 162329Z 10007KT 30/15 A2992 RMK A01 T03010147  RH  039%=      5-min Rain = 0
KCR1 162330Z 10009KT 30/15 A2992 RMK A01 T03010150  RH  040%=      5-min Rain = 0
KCR1 162331Z 10008KT 30/15 A2992 RMK A01 T03010153  RH  041%=      5-min Rain = 0
KCR1 162332Z 11005KT 30/15 A2992 RMK A01 T03020149  RH  040%=      5-min Rain = 0
KCR1 162333Z 12006KT 30/15 A2992 RMK A01 T03010151  RH  040%=      5-min Rain = 0
KCR1 162334Z 11008KT 30/15 A2992 RMK A01 T03000152  RH  040%=      5-min Rain = 0
KCR1 162335Z 10010KT 30/15 A2992 RMK A01 T03010153  RH  041%=      5-min Rain = 0
KCR1 162336Z 10008KT 30/15 A2992 RMK A01 T03000152  RH  041%=      5-min Rain = 0
KCR1 162337Z 11009KT 30/15 A2992 RMK A01 T02990152  RH  041%=      5-min Rain = 0
KCR1 162338Z 10008KT 30/15 A2992 RMK A01 T02990153  RH  041%=      5-min Rain = 0
KCR1 162339Z 10009KT 30/15 A2992 RMK A01 T02990153  RH  041%=      5-min Rain = 0
KCR1 162340Z 10007KT 30/15 A2992 RMK A01 T03000153  RH  041%=      5-min Rain = 0
KCR1 162341Z 09007KT 30/16 A2992 RMK A01 T02990155  RH  042%=      5-min Rain = 0
KCR1 162342Z 10009KT 30/16 A2992 RMK A01 T03000156  RH  042%=      5-min Rain = 0
KCR1 162343Z 10009KT 30/16 A2992 RMK A01 T03010156  RH  042%=      5-min Rain = 0
KCR1 162344Z 10006KT 30/15 A2992 RMK A01 T02990154  RH  041%=      5-min Rain = 0
KCR1 162345Z 10007KT 30/16 A2992 RMK A01 T02980156  RH  042%=      5-min Rain = 0
KCR1 162346Z 11007KT 30/15 A2992 RMK A01 T02990154  RH  041%=      5-min Rain = 0
KCR1 162347Z 11007KT 30/16 A2992 RMK A01 T02990156  RH  042%=      5-min Rain = 0
KCR1 162348Z 10009KT 30/15 A2992 RMK A01 T02990152  RH  041%=      5-min Rain = 0
KCR1 162349Z 10009KT 30/16 A2991 RMK A01 T02990157  RH  042%=      5-min Rain = 0
KCR1 162350Z 10010KT 30/16 A2991 RMK A01 T02980159  RH  043%=      5-min Rain = 0
KCR1 162351Z 10010KT 30/16 A2991 RMK A01 T02970159  RH  043%=      5-min Rain = 0
KCR1 162352Z 11010KT 30/16 A2991 RMK A01 T02970158  RH  043%=      5-min Rain = 0
KCR1 162353Z 10009KT 30/16 A2991 RMK A01 T02960157  RH  043%=      5-min Rain = 0
KCR1 162354Z 11009KT 30/16 A2991 RMK A01 T02950158  RH  043%=      5-min Rain = 0
KCR1 162355Z 12009KT 30/16 A2991 RMK A01 T02950158  RH  043%=      5-min Rain = 0
KCR1 162356Z 11009KT 30/16 A2991 RMK A01 T02950158  RH  043%=      5-min Rain = 0
KCR1 162357Z 10007KT 30/16 A2991 RMK A01 T02950159  RH  044%=      5-min Rain = 0
KCR1 162358Z 10008KT 30/16 A2991 RMK A01 T02960158  RH  043%=      5-min Rain = 0
KCR1 162359Z 10010KT 30/16 A2991 RMK A01 T02960158  RH  043%=      5-min Rain = 0
KCR1 170000Z 10010KT 30/16 A2991 RMK A01 T02950157  RH  043%=      5-min Rain = 0
KCR1 170001Z 11011KT 30/16 A2991 RMK A01 T02950158  RH  043%=      5-min Rain = 0
KCR1 170002Z 11009KT 29/16 A2991 RMK A01 T02940157  RH  044%=      5-min Rain = 0
KCR1 170003Z 11010KT 29/16 A2991 RMK A01 T02940157  RH  043%=      5-min Rain = 0
KCR1 170004Z 12009KT 29/16 A2991 RMK A01 T02940158  RH  044%=      5-min Rain = 0
KCR1 170005Z 12010KT 29/16 A2991 RMK A01 T02940157  RH  044%=      5-min Rain = 0
KCR1 170006Z 12009KT 29/16 A2991 RMK A01 T02930158  RH  044%=      5-min Rain = 0
KCR1 170007Z 12007KT 29/16 A2991 RMK A01 T02930160  RH  045%=      5-min Rain = 0
KCR1 170008Z 12010KT 29/16 A2991 RMK A01 T02940161  RH  045%=      5-min Rain = 0
KCR1 170009Z 12010KT 29/16 A2991 RMK A01 T02940159  RH  044%=      5-min Rain = 0
KCR1 170010Z 11008KT 29/16 A2991 RMK A01 T02930159  RH  044%=      5-min Rain = 0
KCR1 170011Z 11009KT 29/16 A2991 RMK A01 T02930159  RH  044%=      5-min Rain = 0
KCR1 170012Z 10010KT 29/16 A2991 RMK A01 T02930159  RH  044%=      5-min Rain = 0
KCR1 170013Z 10010KT 29/16 A2991 RMK A01 T02930156  RH  043%=      5-min Rain = 0
KCR1 170014Z 10009KT 29/16 A2991 RMK A01 T02920157  RH  044%=      5-min Rain = 0
KCR1 170015Z 11009KT 29/16 A2991 RMK A01 T02920159  RH  045%=      5-min Rain = 0
KCR1 170016Z 11010KT 29/16 A2991 RMK A01 T02920159  RH  045%=      5-min Rain = 0
KCR1 170017Z 11008KT 29/16 A2991 RMK A01 T02910163  RH  046%=      5-min Rain = 0
KCR1 170018Z 10009KT 29/16 A2991 RMK A01 T02910162  RH  046%=      5-min Rain = 0
KCR1 170019Z 12009KT 29/16 A2991 RMK A01 T02910162  RH  046%=      5-min Rain = 0
KCR1 170020Z 12011KT 29/16 A2991 RMK A01 T02900158  RH  045%=      5-min Rain = 0
KCR1 170021Z 12009KT 29/16 A2991 RMK A01 T02900160  RH  045%=      5-min Rain = 0
KCR1 170022Z 12011KT 29/16 A2991 RMK A01 T02900157  RH  045%=      5-min Rain = 0
KCR1 170023Z 12010KT 29/16 A2991 RMK A01 T02890156  RH  044%=      5-min Rain = 0
KCR1 170024Z 11010KT 29/16 A2991 RMK A01 T02890158  RH  045%=      5-min Rain = 0
KCR1 170025Z 11010KT 29/16 A2991 RMK A01 T02890158  RH  045%=      5-min Rain = 0
KCR1 170026Z 11009KT 29/16 A2991 RMK A01 T02890159  RH  045%=      5-min Rain = 0
KCR1 170027Z 11010KT 29/16 A2991 RMK A01 T02890158  RH  045%=      5-min Rain = 0
KCR1 170028Z 11009KT 29/16 A2991 RMK A01 T02890155  RH  044%=      5-min Rain = 0
KCR1 170029Z 10009KT 29/15 A2991 RMK A01 T02890150  RH  043%=      5-min Rain = 0
KCR1 170030Z 10008KT 29/15 A2991 RMK A01 T02890151  RH  043%=      5-min Rain = 0
KCR1 170031Z 10011KT 29/15 A2991 RMK A01 T02890151  RH  043%=      5-min Rain = 0
KCR1 170032Z 10011KT 29/15 A2991 RMK A01 T02890147  RH  042%=      5-min Rain = 0
KCR1 170033Z 09012KT 29/15 A2991 RMK A01 T02880149  RH  043%=      5-min Rain = 0
KCR1 170034Z 10012KT 29/15 A2991 RMK A01 T02880148  RH  042%=      5-min Rain = 0
KCR1 170035Z 10011KT 29/15 A2991 RMK A01 T02870151  RH  043%=      5-min Rain = 0
KCR1 170036Z 10011KT 29/15 A2991 RMK A01 T02870152  RH  044%=      5-min Rain = 0
KCR1 170037Z 09010KT 29/16 A2991 RMK A01 T02870156  RH  045%=      5-min Rain = 0
KCR1 170038Z 10009KT 29/16 A2991 RMK A01 T02860157  RH  045%=      5-min Rain = 0
KCR1 170039Z 11008KT 29/16 A2991 RMK A01 T02860159  RH  046%=      5-min Rain = 0
KCR1 170040Z 10009KT 29/16 A2991 RMK A01 T02860158  RH  046%=      5-min Rain = 0
KCR1 170041Z 11010KT 29/16 A2991 RMK A01 T02860158  RH  046%=      5-min Rain = 0
KCR1 170042Z 10009KT 29/16 A2991 RMK A01 T02850157  RH  046%=      5-min Rain = 0
KCR1 170043Z 11008KT 29/16 A2991 RMK A01 T02850159  RH  046%=      5-min Rain = 0
KCR1 170044Z 10008KT 29/16 A2991 RMK A01 T02850160  RH  046%=      5-min Rain = 0
KCR1 170045Z 10009KT 29/16 A2991 RMK A01 T02850157  RH  046%=      5-min Rain = 0
KCR1 170046Z 09007KT 29/16 A2991 RMK A01 T02850159  RH  046%=      5-min Rain = 0
KCR1 170047Z 09007KT 29/16 A2991 RMK A01 T02850159  RH  046%=      5-min Rain = 0
KCR1 170048Z 10008KT 28/16 A2991 RMK A01 T02840160  RH  047%=      5-min Rain = 0
KCR1 170049Z 10008KT 28/16 A2991 RMK A01 T02840159  RH  047%=      5-min Rain = 0
KCR1 170050Z 09008KT 28/16 A2991 RMK A01 T02840158  RH  047%=      5-min Rain = 0
KCR1 170051Z 09008KT 28/16 A2991 RMK A01 T02840158  RH  046%=      5-min Rain = 0
KCR1 170052Z 10008KT 28/16 A2991 RMK A01 T02830158  RH  046%=      5-min Rain = 0
KCR1 170053Z 10010KT 28/16 A2991 RMK A01 T02830157  RH  046%=      5-min Rain = 0
KCR1 170054Z 10008KT 28/16 A2991 RMK A01 T02830157  RH  047%=      5-min Rain = 0
KCR1 170055Z 10009KT 28/16 A2991 RMK A01 T02820158  RH  047%=      5-min Rain = 0
KCR1 170056Z 10010KT 28/16 A2991 RMK A01 T02820158  RH  047%=      5-min Rain = 0
KCR1 170057Z 10008KT 28/16 A2991 RMK A01 T02820158  RH  047%=      5-min Rain = 0
KCR1 170058Z 10008KT 28/16 A2991 RMK A01 T02810160  RH  048%=      5-min Rain = 0
KCR1 170059Z 09007KT 28/16 A2991 RMK A01 T02810160  RH  048%=      5-min Rain = 0
KCR1 170100Z 09007KT 28/16 A2991 RMK A01 T02800159  RH  048%=      5-min Rain = 0
KCR1 170101Z 09008KT 28/16 A2991 RMK A01 T02800159  RH  048%=      5-min Rain = 0
KCR1 170102Z 09007KT 28/16 A2991 RMK A01 T02790158  RH  048%=      5-min Rain = 0
KCR1 170103Z 09007KT 28/16 A2991 RMK A01 T02790159  RH  048%=      5-min Rain = 0
KCR1 170104Z 09007KT 28/16 A2991 RMK A01 T02790160  RH  048%=      5-min Rain = 0
KCR1 170105Z 09008KT 28/16 A2991 RMK A01 T02790159  RH  048%=      5-min Rain = 0
KCR1 170106Z 09008KT 28/16 A2991 RMK A01 T02780160  RH  049%=      5-min Rain = 0
KCR1 170107Z 09008KT 28/16 A2991 RMK A01 T02770160  RH  049%=      5-min Rain = 0
KCR1 170108Z 09008KT 28/16 A2991 RMK A01 T02770160  RH  049%=      5-min Rain = 0
KCR1 170109Z 09008KT 28/16 A2991 RMK A01 T02760160  RH  049%=      5-min Rain = 0
KCR1 170110Z 09009KT 28/16 A2991 RMK A01 T02760161  RH  049%=      5-min Rain = 0
KCR1 170111Z 09008KT 28/16 A2991 RMK A01 T02760160  RH  049%=      5-min Rain = 0
KCR1 170112Z 09007KT 28/16 A2991 RMK A01 T02760160  RH  049%=      5-min Rain = 0
KCR1 170113Z 09007KT 28/16 A2991 RMK A01 T02750160  RH  050%=      5-min Rain = 0
KCR1 170114Z 09006KT 27/16 A2991 RMK A01 T02740162  RH  050%=      5-min Rain = 0
KCR1 170115Z 10009KT 27/16 A2991 RMK A01 T02740162  RH  051%=      5-min Rain = 0
KCR1 170116Z 10009KT 27/16 A2991 RMK A01 T02730160  RH  050%=      5-min Rain = 0
KCR1 170117Z 10009KT 27/16 A2991 RMK A01 T02740162  RH  050%=      5-min Rain = 0
KCR1 170118Z 10008KT 27/16 A2991 RMK A01 T02740163  RH  051%=      5-min Rain = 0
KCR1 170119Z 10008KT 27/16 A2991 RMK A01 T02730163  RH  051%=      5-min Rain = 0
KCR1 170120Z 10007KT 27/16 A2991 RMK A01 T02730164  RH  051%=      5-min Rain = 0
KCR1 170121Z 10007KT 27/17 A2991 RMK A01 T02720165  RH  052%=      5-min Rain = 0
KCR1 170122Z 10007KT 27/17 A2991 RMK A01 T02720166  RH  052%=      5-min Rain = 0
KCR1 170123Z 10007KT 27/17 A2991 RMK A01 T02710166  RH  053%=      5-min Rain = 0
KCR1 170124Z 10006KT 27/17 A2991 RMK A01 T02700167  RH  053%=      5-min Rain = 0
KCR1 170125Z 09006KT 27/17 A2991 RMK A01 T02690167  RH  054%=      5-min Rain = 0
KCR1 170126Z 09006KT 27/17 A2991 RMK A01 T02680167  RH  054%=      5-min Rain = 0
KCR1 170127Z 09006KT 27/17 A2991 RMK A01 T02670167  RH  054%=      5-min Rain = 0
KCR1 170128Z 09005KT 27/17 A2992 RMK A01 T02660167  RH  054%=      5-min Rain = 0
KCR1 170129Z 10005KT 27/17 A2992 RMK A01 T02650168  RH  055%=      5-min Rain = 0
KCR1 170130Z 10005KT 26/17 A2992 RMK A01 T02640169  RH  056%=      5-min Rain = 0
KCR1 170131Z 10006KT 26/17 A2992 RMK A01 T02630169  RH  056%=      5-min Rain = 0
KCR1 170132Z 10006KT 26/17 A2992 RMK A01 T02630169  RH  056%=      5-min Rain = 0
KCR1 170133Z 10006KT 26/17 A2992 RMK A01 T02630168  RH  056%=      5-min Rain = 0
KCR1 170134Z 11006KT 26/17 A2992 RMK A01 T02630168  RH  056%=      5-min Rain = 0
KCR1 170135Z 11006KT 26/17 A2992 RMK A01 T02630169  RH  056%=      5-min Rain = 0
KCR1 170136Z 11005KT 26/17 A2992 RMK A01 T02620168  RH  056%=      5-min Rain = 0
KCR1 170137Z 11006KT 26/17 A2992 RMK A01 T02610169  RH  057%=      5-min Rain = 0
KCR1 170138Z 11006KT 26/17 A2992 RMK A01 T02590169  RH  057%=      5-min Rain = 0
KCR1 170139Z 11006KT 26/17 A2992 RMK A01 T02580168  RH  058%=      5-min Rain = 0
KCR1 170140Z 11006KT 26/17 A2992 RMK A01 T02580168  RH  057%=      5-min Rain = 0
KCR1 170141Z 11006KT 26/17 A2992 RMK A01 T02570168  RH  058%=      5-min Rain = 0
KCR1 170142Z 11006KT 26/17 A2992 RMK A01 T02570167  RH  058%=      5-min Rain = 0
KCR1 170143Z 11006KT 26/17 A2992 RMK A01 T02570166  RH  057%=      5-min Rain = 0
KCR1 170144Z 11007KT 26/17 A2992 RMK A01 T02570166  RH  057%=      5-min Rain = 0
KCR1 170145Z 12006KT 26/17 A2992 RMK A01 T02580167  RH  057%=      5-min Rain = 0
KCR1 170146Z 11006KT 26/17 A2992 RMK A01 T02570167  RH  057%=      5-min Rain = 0
KCR1 170147Z 11006KT 26/17 A2992 RMK A01 T02560167  RH  058%=      5-min Rain = 0
KCR1 170148Z 11006KT 26/17 A2992 RMK A01 T02550167  RH  058%=      5-min Rain = 0
KCR1 170149Z 11007KT 26/17 A2992 RMK A01 T02550167  RH  058%=      5-min Rain = 0
KCR1 170150Z 11007KT 25/17 A2992 RMK A01 T02540167  RH  058%=      5-min Rain = 0
KCR1 170151Z 10007KT 25/17 A2992 RMK A01 T02540166  RH  058%=      5-min Rain = 0
KCR1 170152Z 11006KT 25/17 A2992 RMK A01 T02540167  RH  058%=      5-min Rain = 0
KCR1 170153Z 10006KT 25/17 A2992 RMK A01 T02540168  RH  059%=      5-min Rain = 0
KCR1 170154Z 11006KT 25/17 A2992 RMK A01 T02540169  RH  059%=      5-min Rain = 0
KCR1 170155Z 10006KT 25/17 A2992 RMK A01 T02530168  RH  059%=      5-min Rain = 0
KCR1 170156Z 10006KT 25/17 A2992 RMK A01 T02530168  RH  060%=      5-min Rain = 0
KCR1 170157Z 11006KT 25/17 A2992 RMK A01 T02530169  RH  060%=      5-min Rain = 0
KCR1 170158Z 11006KT 25/17 A2992 RMK A01 T02530170  RH  060%=      5-min Rain = 0
KCR1 170159Z 11006KT 25/17 A2992 RMK A01 T02520170  RH  061%=      5-min Rain = 0
KCR1 170200Z 11006KT 25/17 A2992 RMK A01 T02510171  RH  061%=      5-min Rain = 0
KCR1 170201Z 11006KT 25/17 A2992 RMK A01 T02500171  RH  061%=      5-min Rain = 0
KCR1 170202Z 11006KT 25/17 A2992 RMK A01 T02500171  RH  062%=      5-min Rain = 0
KCR1 170203Z 11006KT 25/17 A2992 RMK A01 T02490171  RH  062%=      5-min Rain = 0
KCR1 170204Z 11006KT 25/17 A2992 RMK A01 T02490172  RH  062%=      5-min Rain = 0
KCR1 170205Z 11006KT 25/17 A2992 RMK A01 T02480171  RH  062%=      5-min Rain = 0
KCR1 170206Z 11006KT 25/17 A2992 RMK A01 T02470172  RH  063%=      5-min Rain = 0
KCR1 170207Z 11006KT 25/17 A2992 RMK A01 T02470172  RH  063%=      5-min Rain = 0
KCR1 170208Z 11006KT 25/17 A2992 RMK A01 T02470171  RH  063%=      5-min Rain = 0
KCR1 170209Z 11007KT 25/17 A2992 RMK A01 T02470172  RH  063%=      5-min Rain = 0
KCR1 170210Z 11007KT 25/17 A2992 RMK A01 T02470171  RH  063%=      5-min Rain = 0
KCR1 170211Z 11006KT 25/17 A2992 RMK A01 T02470171  RH  063%=      5-min Rain = 0
KCR1 170212Z 11007KT 25/17 A2992 RMK A01 T02470170  RH  062%=      5-min Rain = 0
KCR1 170213Z 11007KT 25/17 A2992 RMK A01 T02470171  RH  062%=      5-min Rain = 0
KCR1 170214Z 11007KT 25/17 A2992 RMK A01 T02470171  RH  062%=      5-min Rain = 0
KCR1 170215Z 12007KT 25/17 A2992 RMK A01 T02470170  RH  062%=      5-min Rain = 0
KCR1 170216Z 12006KT 25/17 A2993 RMK A01 T02470170  RH  062%=      5-min Rain = 0
KCR1 170217Z 12006KT 25/17 A2993 RMK A01 T02460170  RH  063%=      5-min Rain = 0
KCR1 170218Z 12006KT 25/17 A2993 RMK A01 T02460170  RH  063%=      5-min Rain = 0
KCR1 170219Z 12006KT 25/17 A2993 RMK A01 T02450170  RH  063%=      5-min Rain = 0
KCR1 170220Z 12006KT 24/17 A2993 RMK A01 T02440170  RH  063%=      5-min Rain = 0
KCR1 170221Z 12007KT 24/17 A2993 RMK A01 T02440170  RH  063%=      5-min Rain = 0
KCR1 170222Z 12007KT 24/17 A2993 RMK A01 T02430169  RH  063%=      5-min Rain = 0
KCR1 170223Z 12007KT 24/17 A2993 RMK A01 T02440169  RH  063%=      5-min Rain = 0
KCR1 170224Z 12007KT 24/17 A2993 RMK A01 T02440169  RH  063%=      5-min Rain = 0
KCR1 170225Z 12007KT 24/17 A2993 RMK A01 T02430169  RH  063%=      5-min Rain = 0
KCR1 170226Z 12007KT 24/17 A2993 RMK A01 T02430168  RH  063%=      5-min Rain = 0
KCR1 170227Z 12007KT 24/17 A2993 RMK A01 T02430168  RH  063%=      5-min Rain = 0
KCR1 170228Z 12007KT 24/17 A2993 RMK A01 T02430168  RH  063%=      5-min Rain = 0
KCR1 170229Z 12007KT 24/17 A2993 RMK A01 T02430168  RH  063%=      5-min Rain = 0
KCR1 170230Z 12007KT 24/17 A2993 RMK A01 T02420168  RH  063%=      5-min Rain = 0
KCR1 170231Z 12007KT 24/17 A2993 RMK A01 T02420168  RH  063%=      5-min Rain = 0
KCR1 170232Z 12007KT 24/17 A2993 RMK A01 T02410168  RH  063%=      5-min Rain = 0
KCR1 170233Z 12007KT 24/17 A2993 RMK A01 T02410168  RH  063%=      5-min Rain = 0
KCR1 170234Z 12007KT 24/17 A2993 RMK A01 T02400168  RH  064%=      5-min Rain = 0
KCR1 170235Z 12006KT 24/17 A2993 RMK A01 T02400168  RH  064%=      5-min Rain = 0
KCR1 170236Z 12006KT 24/17 A2993 RMK A01 T02390168  RH  064%=      5-min Rain = 0
KCR1 170237Z 13006KT 24/17 A2993 RMK A01 T02390167  RH  064%=      5-min Rain = 0
KCR1 170238Z 13006KT 24/17 A2993 RMK A01 T02380167  RH  064%=      5-min Rain = 0
KCR1 170239Z 13006KT 24/17 A2993 RMK A01 T02380167  RH  064%=      5-min Rain = 0
KCR1 170240Z 13006KT 24/17 A2993 RMK A01 T02380167  RH  064%=      5-min Rain = 0
KCR1 170241Z 13005KT 24/17 A2993 RMK A01 T02380167  RH  065%=      5-min Rain = 0
KCR1 170242Z 13006KT 24/17 A2993 RMK A01 T02370167  RH  065%=      5-min Rain = 0
KCR1 170243Z 13006KT 24/17 A2993 RMK A01 T02370167  RH  065%=      5-min Rain = 0
KCR1 170244Z 13005KT 24/17 A2993 RMK A01 T02370167  RH  065%=      5-min Rain = 0
KCR1 170245Z 13005KT 24/17 A2993 RMK A01 T02360167  RH  065%=      5-min Rain = 0
KCR1 170246Z 13006KT 24/17 A2993 RMK A01 T02350167  RH  065%=      5-min Rain = 0
KCR1 170247Z 13005KT 24/17 A2993 RMK A01 T02350167  RH  066%=      5-min Rain = 0
KCR1 170248Z 13006KT 24/17 A2993 RMK A01 T02350167  RH  066%=      5-min Rain = 0
KCR1 170249Z 13005KT 23/17 A2993 RMK A01 T02340168  RH  066%=      5-min Rain = 0
KCR1 170250Z 13005KT 23/17 A2993 RMK A01 T02340168  RH  066%=      5-min Rain = 0
KCR1 170251Z 13005KT 23/17 A2993 RMK A01 T02330168  RH  067%=      5-min Rain = 0
KCR1 170252Z 13005KT 23/17 A2994 RMK A01 T02330167  RH  067%=      5-min Rain = 0
KCR1 170253Z 13005KT 23/17 A2994 RMK A01 T02320167  RH  067%=      5-min Rain = 0
KCR1 170254Z 13005KT 23/17 A2994 RMK A01 T02320167  RH  067%=      5-min Rain = 0
KCR1 170255Z 13005KT 23/17 A2994 RMK A01 T02320168  RH  067%=      5-min Rain = 0
KCR1 170256Z 13005KT 23/17 A2994 RMK A01 T02310167  RH  067%=      5-min Rain = 0
KCR1 170257Z 13006KT 23/17 A2994 RMK A01 T02310167  RH  067%=      5-min Rain = 0
KCR1 170258Z 13006KT 23/17 A2994 RMK A01 T02310167  RH  067%=      5-min Rain = 0
KCR1 170259Z 13006KT 23/17 A2994 RMK A01 T02300167  RH  068%=      5-min Rain = 0
KCR1 170300Z 13005KT 23/17 A2994 RMK A01 T02290168  RH  068%=      5-min Rain = 0
KCR1 170301Z 13005KT 23/17 A2994 RMK A01 T02280167  RH  068%=      5-min Rain = 0
KCR1 170302Z 13006KT 23/17 A2994 RMK A01 T02280167  RH  069%=      5-min Rain = 0
KCR1 170303Z 13005KT 23/17 A2994 RMK A01 T02280168  RH  069%=      5-min Rain = 0
KCR1 170304Z 13005KT 23/17 A2994 RMK A01 T02280168  RH  069%=      5-min Rain = 0
KCR1 170305Z 13005KT 23/17 A2994 RMK A01 T02270168  RH  069%=      5-min Rain = 0
KCR1 170306Z 13005KT 23/17 A2994 RMK A01 T02260167  RH  069%=      5-min Rain = 0
KCR1 170307Z 13005KT 23/17 A2994 RMK A01 T02260168  RH  069%=      5-min Rain = 0
KCR1 170308Z 13005KT 23/17 A2994 RMK A01 T02260168  RH  069%=      5-min Rain = 0
KCR1 170309Z 13005KT 23/17 A2994 RMK A01 T02250167  RH  070%=      5-min Rain = 0
KCR1 170310Z 13005KT 23/17 A2994 RMK A01 T02250168  RH  070%=      5-min Rain = 0
KCR1 170311Z 14005KT 22/17 A2994 RMK A01 T02240167  RH  070%=      5-min Rain = 0
KCR1 170312Z 14005KT 22/17 A2994 RMK A01 T02240167  RH  070%=      5-min Rain = 0
KCR1 170313Z 14006KT 22/17 A2994 RMK A01 T02230167  RH  070%=      5-min Rain = 0
KCR1 170314Z 14005KT 22/17 A2994 RMK A01 T02230167  RH  071%=      5-min Rain = 0
KCR1 170315Z 14006KT 22/17 A2994 RMK A01 T02230167  RH  071%=      5-min Rain = 0
KCR1 170316Z 14006KT 22/17 A2994 RMK A01 T02230167  RH  071%=      5-min Rain = 0
KCR1 170317Z 14006KT 22/17 A2994 RMK A01 T02220167  RH  071%=      5-min Rain = 0
KCR1 170318Z 14006KT 22/17 A2994 RMK A01 T02220166  RH  071%=      5-min Rain = 0
KCR1 170319Z 14006KT 22/17 A2993 RMK A01 T02220167  RH  071%=      5-min Rain = 0
KCR1 170320Z 14006KT 22/17 A2993 RMK A01 T02220166  RH  071%=      5-min Rain = 0
KCR1 170321Z 14006KT 22/17 A2993 RMK A01 T02220167  RH  071%=      5-min Rain = 0
KCR1 170322Z 14006KT 22/17 A2993 RMK A01 T02220167  RH  071%=      5-min Rain = 0
KCR1 170323Z 14006KT 22/17 A2993 RMK A01 T02220167  RH  071%=      5-min Rain = 0
KCR1 170324Z 14006KT 22/17 A2993 RMK A01 T02220167  RH  071%=      5-min Rain = 0
KCR1 170325Z 14006KT 22/17 A2993 RMK A01 T02210167  RH  071%=      5-min Rain = 0
KCR1 170326Z 14006KT 22/17 A2993 RMK A01 T02210167  RH  071%=      5-min Rain = 0
KCR1 170327Z 14006KT 22/17 A2993 RMK A01 T02210167  RH  072%=      5-min Rain = 0
KCR1 170328Z 13006KT 22/17 A2993 RMK A01 T02200167  RH  072%=      5-min Rain = 0
KCR1 170329Z 13006KT 22/17 A2993 RMK A01 T02200167  RH  072%=      5-min Rain = 0
KCR1 170330Z 13006KT 22/17 A2993 RMK A01 T02200167  RH  072%=      5-min Rain = 0
KCR1 170331Z 13006KT 22/17 A2993 RMK A01 T02200167  RH  072%=      5-min Rain = 0
KCR1 170332Z 13006KT 22/17 A2993 RMK A01 T02200167  RH  072%=      5-min Rain = 0
KCR1 170333Z 13006KT 22/17 A2993 RMK A01 T02200167  RH  072%=      5-min Rain = 0
KCR1 170334Z 13006KT 22/17 A2993 RMK A01 T02200167  RH  072%=      5-min Rain = 0
KCR1 170335Z 14006KT 22/17 A2993 RMK A01 T02200167  RH  072%=      5-min Rain = 0
KCR1 170336Z 14006KT 22/17 A2993 RMK A01 T02190167  RH  072%=      5-min Rain = 0
KCR1 170337Z 14006KT 22/17 A2993 RMK A01 T02190167  RH  072%=      5-min Rain = 0
KCR1 170338Z 14005KT 22/17 A2993 RMK A01 T02190167  RH  072%=      5-min Rain = 0
KCR1 170339Z 14006KT 22/17 A2993 RMK A01 T02180167  RH  072%=      5-min Rain = 0
KCR1 170340Z 14005KT 22/17 A2993 RMK A01 T02180167  RH  072%=      5-min Rain = 0
KCR1 170341Z 14006KT 22/17 A2993 RMK A01 T02190167  RH  072%=      5-min Rain = 0
KCR1 170342Z 14006KT 22/17 A2993 RMK A01 T02190167  RH  073%=      5-min Rain = 0
KCR1 170343Z 14005KT 22/17 A2993 RMK A01 T02180167  RH  073%=      5-min Rain = 0
KCR1 170344Z 15006KT 22/17 A2993 RMK A01 T02180167  RH  073%=      5-min Rain = 0
KCR1 170345Z 15006KT 22/17 A2993 RMK A01 T02170167  RH  073%=      5-min Rain = 0
KCR1 170346Z 15006KT 22/17 A2993 RMK A01 T02170167  RH  073%=      5-min Rain = 0
KCR1 170347Z 15006KT 22/17 A2993 RMK A01 T02170167  RH  073%=      5-min Rain = 0
KCR1 170348Z 15006KT 22/17 A2993 RMK A01 T02160167  RH  074%=      5-min Rain = 0
KCR1 170349Z 15006KT 22/17 A2993 RMK A01 T02160167  RH  074%=      5-min Rain = 0
KCR1 170350Z 16006KT 22/17 A2993 RMK A01 T02160168  RH  074%=      5-min Rain = 0
KCR1 170351Z 16006KT 22/17 A2993 RMK A01 T02150168  RH  074%=      5-min Rain = 0
KCR1 170352Z 16006KT 22/17 A2993 RMK A01 T02150168  RH  075%=      5-min Rain = 0
KCR1 170353Z 16006KT 22/17 A2993 RMK A01 T02150169  RH  075%=      5-min Rain = 0
KCR1 170354Z 16007KT 21/17 A2993 RMK A01 T02140169  RH  075%=      5-min Rain = 0
KCR1 170355Z 16007KT 21/17 A2993 RMK A01 T02140169  RH  076%=      5-min Rain = 0
KCR1 170356Z 16007KT 21/17 A2993 RMK A01 T02130169  RH  076%=      5-min Rain = 0
KCR1 170357Z 17006KT 21/17 A2993 RMK A01 T02130169  RH  076%=      5-min Rain = 0
KCR1 170358Z 17006KT 21/17 A2993 RMK A01 T02130169  RH  076%=      5-min Rain = 0
KCR1 170359Z 17006KT 21/17 A2993 RMK A01 T02120169  RH  076%=      5-min Rain = 0
KCR1 170400Z 17006KT 21/17 A2993 RMK A01 T02120169  RH  076%=      5-min Rain = 0
KCR1 170401Z 17005KT 21/17 A2993 RMK A01 T02120169  RH  076%=      5-min Rain = 0
KCR1 170402Z 17005KT 21/17 A2993 RMK A01 T02110169  RH  077%=      5-min Rain = 0
KCR1 170403Z 17005KT 21/17 A2993 RMK A01 T02110168  RH  077%=      5-min Rain = 0
KCR1 170404Z 17004KT 21/17 A2993 RMK A01 T02100168  RH  077%=      5-min Rain = 0
KCR1 170405Z 16004KT 21/17 A2993 RMK A01 T02100168  RH  077%=      5-min Rain = 0
KCR1 170406Z 16004KT 21/17 A2994 RMK A01 T02090168  RH  077%=      5-min Rain = 0
KCR1 170407Z 15003KT 21/17 A2994 RMK A01 T02090168  RH  077%=      5-min Rain = 0
KCR1 170408Z 15003KT 21/17 A2994 RMK A01 T02090168  RH  078%=      5-min Rain = 0
KCR1 170409Z 14003KT 21/17 A2994 RMK A01 T02080168  RH  078%=      5-min Rain = 0
KCR1 170410Z 15003KT 21/17 A2994 RMK A01 T02080168  RH  078%=      5-min Rain = 0
KCR1 170411Z 15003KT 21/17 A2994 RMK A01 T02080168  RH  078%=      5-min Rain = 0
KCR1 170412Z 14003KT 21/17 A2994 RMK A01 T02080169  RH  078%=      5-min Rain = 0
KCR1 170413Z 13003KT 21/17 A2994 RMK A01 T02080168  RH  078%=      5-min Rain = 0
KCR1 170414Z 13003KT 21/17 A2994 RMK A01 T02080168  RH  078%=      5-min Rain = 0
KCR1 170415Z 13003KT 21/17 A2994 RMK A01 T02090168  RH  078%=      5-min Rain = 0
KCR1 170416Z 13003KT 21/17 A2994 RMK A01 T02090168  RH  077%=      5-min Rain = 0
KCR1 170417Z 12003KT 21/17 A2994 RMK A01 T02090168  RH  077%=      5-min Rain = 0
KCR1 170418Z 12003KT 21/17 A2994 RMK A01 T02100168  RH  077%=      5-min Rain = 0
KCR1 170419Z 12003KT 21/17 A2994 RMK A01 T02100169  RH  077%=      5-min Rain = 0
KCR1 170420Z 13003KT 21/17 A2994 RMK A01 T02100169  RH  077%=      5-min Rain = 0
KCR1 170421Z 13004KT 21/17 A2994 RMK A01 T02110169  RH  077%=      5-min Rain = 0
KCR1 170422Z 13004KT 21/17 A2994 RMK A01 T02110169  RH  077%=      5-min Rain = 0
KCR1 170423Z 13004KT 21/17 A2994 RMK A01 T02110168  RH  077%=      5-min Rain = 0
KCR1 170424Z 13004KT 21/17 A2994 RMK A01 T02110168  RH  077%=      5-min Rain = 0
KCR1 170425Z 13004KT 21/17 A2994 RMK A01 T02110168  RH  076%=      5-min Rain = 0
KCR1 170426Z 14004KT 21/17 A2994 RMK A01 T02110168  RH  076%=      5-min Rain = 0
KCR1 170427Z 14004KT 21/17 A2994 RMK A01 T02110168  RH  076%=      5-min Rain = 0
KCR1 170428Z 14004KT 21/17 A2994 RMK A01 T02100168  RH  076%=      5-min Rain = 0
KCR1 170429Z 15004KT 21/17 A2994 RMK A01 T02100168  RH  076%=      5-min Rain = 0
KCR1 170430Z 15004KT 21/17 A2994 RMK A01 T02100168  RH  077%=      5-min Rain = 0
KCR1 170431Z 15004KT 21/17 A2994 RMK A01 T02100168  RH  077%=      5-min Rain = 0
KCR1 170432Z 14004KT 21/17 A2994 RMK A01 T02100168  RH  077%=      5-min Rain = 0
KCR1 170433Z 15004KT 21/17 A2994 RMK A01 T02090167  RH  077%=      5-min Rain = 0
KCR1 170434Z 14004KT 21/17 A2994 RMK A01 T02090168  RH  077%=      5-min Rain = 0
KCR1 170435Z 15004KT 21/17 A2994 RMK A01 T02090168  RH  077%=      5-min Rain = 0
KCR1 170436Z 15004KT 21/17 A2994 RMK A01 T02090168  RH  077%=      5-min Rain = 0
KCR1 170437Z 14004KT 21/17 A2994 RMK A01 T02080168  RH  077%=      5-min Rain = 0
KCR1 170438Z 13004KT 21/17 A2994 RMK A01 T02080167  RH  077%=      5-min Rain = 0
KCR1 170439Z 13004KT 21/17 A2994 RMK A01 T02080168  RH  078%=      5-min Rain = 0
KCR1 170440Z 13005KT 21/17 A2994 RMK A01 T02080168  RH  078%=      5-min Rain = 0
KCR1 170441Z 13005KT 21/17 A2994 RMK A01 T02080168  RH  078%=      5-min Rain = 0
KCR1 170442Z 13005KT 21/17 A2994 RMK A01 T02080168  RH  078%=      5-min Rain = 0
KCR1 170443Z 13005KT 21/17 A2994 RMK A01 T02070168  RH  078%=      5-min Rain = 0
KCR1 170444Z 13005KT 21/17 A2994 RMK A01 T02070169  RH  079%=      5-min Rain = 0
KCR1 170445Z 12005KT 21/17 A2994 RMK A01 T02060169  RH  079%=      5-min Rain = 0
KCR1 170446Z 12005KT 21/17 A2994 RMK A01 T02060169  RH  079%=      5-min Rain = 0
KCR1 170447Z 12005KT 21/17 A2994 RMK A01 T02050169  RH  080%=      5-min Rain = 0
KCR1 170448Z 13005KT 21/17 A2994 RMK A01 T02050169  RH  080%=      5-min Rain = 0
KCR1 170449Z 12005KT 21/17 A2994 RMK A01 T02050169  RH  080%=      5-min Rain = 0
KCR1 170450Z 12005KT 21/17 A2994 RMK A01 T02050169  RH  080%=      5-min Rain = 0
KCR1 170451Z 12005KT 21/17 A2994 RMK A01 T02050169  RH  080%=      5-min Rain = 0
KCR1 170452Z 12005KT 21/17 A2994 RMK A01 T02050169  RH  080%=      5-min Rain = 0
KCR1 170453Z 12005KT 21/17 A2994 RMK A01 T02050169  RH  080%=      5-min Rain = 0
KCR1 170454Z 13005KT 21/17 A2994 RMK A01 T02050169  RH  080%=      5-min Rain = 0
KCR1 170455Z 13006KT 21/17 A2994 RMK A01 T02050169  RH  080%=      5-min Rain = 0
KCR1 170456Z 13006KT 21/17 A2994 RMK A01 T02050168  RH  079%=      5-min Rain = 0
KCR1 170457Z 13006KT 21/17 A2994 RMK A01 T02060169  RH  079%=      5-min Rain = 0
KCR1 170458Z 13006KT 21/17 A2994 RMK A01 T02060169  RH  079%=      5-min Rain = 0
KCR1 170459Z 13006KT 21/17 A2994 RMK A01 T02050169  RH  079%=      5-min Rain = 0

Page generated in 0.1509 seconds.